Raw Data From Station

Date Time Current Temp Hourly Low / High Today’s Low / High Pressure Humidity Rain
10/01/2022 05:57 AM 54.9°F 54.9°F / 55.9°F 54.9°F / 60.1°F 29.78 inHg 61% 0.00″
10/01/2022 05:27 AM 55.6°F 55.6°F / 55.9°F 55.6°F / 60.1°F 29.77 inHg 60% 0.00″
10/01/2022 04:56 AM 55.9°F 55.9°F / 56.5°F 55.9°F / 60.1°F 29.77 inHg 60% 0.00″
10/01/2022 04:26 AM 56.1°F 56.1°F / 56.5°F 56.1°F / 60.1°F 29.76 inHg 59% 0.00″
10/01/2022 03:56 AM 56.5°F 56.5°F / 56.8°F 56.5°F / 60.1°F 29.76 inHg 57% 0.00″
10/01/2022 03:26 AM 56.7°F 56.7°F / 56.8°F 56.5°F / 60.1°F 29.76 inHg 56% 0.00″
10/01/2022 02:56 AM 56.7°F 56.5°F / 57.9°F 56.5°F / 60.1°F 29.76 inHg 56% 0.00″
10/01/2022 02:26 AM 56.8°F 56.8°F / 57.9°F 56.8°F / 60.1°F 29.76 inHg 55% 0.00″
10/01/2022 01:56 AM 58.3°F 58.3°F / 59.5°F 58.3°F / 60.1°F 29.76 inHg 52% 0.00″
10/01/2022 01:26 AM 59.2°F 59.2°F / 59.5°F 59.2°F / 60.1°F 29.76 inHg 50% 0.00″
10/01/2022 12:55 AM 59.5°F 59.5°F / 60.1°F 59.5°F / 60.1°F 29.76 inHg 50% 0.00″
10/01/2022 12:25 AM 59.7°F 59.7°F / 60.1°F 59.7°F / 60.1°F 29.77 inHg 48% 0.00″
09/30/2022 11:55 PM 60.1°F 60.1°F / 60.3°F 48.0°F / 71.8°F 29.78 inHg 49% 0.00″
09/30/2022 11:25 PM 60.3°F 60.1°F / 60.3°F 48.0°F / 71.8°F 29.77 inHg 49% 0.00″
09/30/2022 10:55 PM 60.1°F 58.8°F / 60.1°F 48.0°F / 71.8°F 29.78 inHg 49% 0.00″
09/30/2022 10:25 PM 59.5°F 58.8°F / 59.5°F 48.0°F / 71.8°F 29.78 inHg 50% 0.00″
09/30/2022 09:55 PM 58.6°F 55.9°F / 58.6°F 48.0°F / 71.8°F 29.78 inHg 52% 0.00″
09/30/2022 09:25 PM 57.4°F 55.9°F / 57.4°F 48.0°F / 71.8°F 29.78 inHg 55% 0.00″
09/30/2022 08:55 PM 56.7°F 56.7°F / 58.3°F 48.0°F / 71.8°F 29.77 inHg 59% 0.00″
09/30/2022 08:25 PM 56.8°F 56.8°F / 58.3°F 48.0°F / 71.8°F 29.77 inHg 60% 0.00″
09/30/2022 07:55 PM 58.5°F 58.5°F / 62.4°F 48.0°F / 71.8°F 29.76 inHg 58% 0.00″
09/30/2022 07:25 PM 60.3°F 60.3°F / 62.4°F 48.0°F / 71.8°F 29.75 inHg 57% 0.00″
09/30/2022 06:55 PM 63.1°F 63.1°F / 68.2°F 48.0°F / 71.8°F 29.75 inHg 50% 0.00″
09/30/2022 06:24 PM 67.8°F 67.8°F / 68.2°F 48.0°F / 71.8°F 29.74 inHg 42% 0.00″
09/30/2022 04:55 PM 70.9°F 70.7°F / 71.8°F 48.0°F / 71.8°F 29.75 inHg 36% 0.00″
09/30/2022 04:25 PM 71.2°F 70.9°F / 71.8°F 48.0°F / 71.8°F 29.76 inHg 36% 0.00″
09/30/2022 03:55 PM 70.5°F 66.9°F / 71.1°F 48.0°F / 71.1°F 29.77 inHg 36% 0.00″
09/30/2022 03:25 PM 69.6°F 66.9°F / 69.6°F 48.0°F / 69.6°F 29.78 inHg 40% 0.00″
09/30/2022 02:55 PM 66.7°F 65.5°F / 66.9°F 48.0°F / 66.9°F 29.79 inHg 43% 0.00″
09/30/2022 12:54 PM 65.5°F 65.5°F / 66.9°F 48.0°F / 66.9°F 29.84 inHg 45% 0.00″
09/30/2022 12:24 PM 66.4°F 66.4°F / 66.9°F 48.0°F / 66.9°F 29.86 inHg 43% 0.00″
09/30/2022 11:54 AM 66.0°F 64.0°F / 66.0°F 48.0°F / 66.0°F 29.86 inHg 44% 0.00″
09/30/2022 11:24 AM 64.4°F 64.4°F / 65.8°F 48.0°F / 65.8°F 29.88 inHg 44% 0.00″
09/30/2022 10:54 AM 65.7°F 64.0°F / 65.7°F 48.0°F / 65.7°F 29.88 inHg 44% 0.00″
09/30/2022 09:42 AM 59.5°F 53.1°F / 59.5°F 48.0°F / 59.5°F 29.88 inHg 56% 0.00″
09/30/2022 09:12 AM 54.5°F 53.1°F / 54.5°F 48.0°F / 56.1°F 29.89 inHg 66% 0.00″
09/30/2022 08:42 AM 51.3°F 48.2°F / 51.3°F 48.0°F / 56.1°F 29.89 inHg 71% 0.00″
09/30/2022 08:12 AM 48.7°F 48.2°F / 48.7°F 48.0°F / 56.1°F 29.89 inHg 71% 0.00″
09/30/2022 07:42 AM 48.4°F 48.4°F / 49.3°F 48.4°F / 56.1°F 29.89 inHg 68% 0.00″
09/30/2022 07:12 AM 48.9°F 48.9°F / 49.3°F 48.9°F / 56.1°F 29.89 inHg 66% 0.00″
09/30/2022 06:42 AM 49.6°F 49.6°F / 51.4°F 49.6°F / 56.1°F 29.89 inHg 65% 0.00″
09/30/2022 06:12 AM 50.5°F 50.5°F / 51.4°F 50.4°F / 56.1°F 29.89 inHg 62% 0.00″
09/30/2022 05:42 AM 52.9°F 52.9°F / 53.4°F 50.4°F / 56.1°F 29.89 inHg 59% 0.00″
09/30/2022 05:11 AM 53.4°F 53.2°F / 53.4°F 50.4°F / 56.1°F 29.88 inHg 56% 0.00″
09/30/2022 04:41 AM 52.9°F 50.4°F / 52.9°F 50.4°F / 56.1°F 29.88 inHg 57% 0.00″
09/30/2022 04:11 AM 50.5°F 50.4°F / 50.5°F 50.4°F / 56.1°F 29.88 inHg 62% 0.00″
09/30/2022 03:41 AM 50.7°F 50.7°F / 53.8°F 50.7°F / 56.1°F 29.88 inHg 61% 0.00″
09/30/2022 03:11 AM 53.2°F 53.2°F / 53.8°F 53.2°F / 56.1°F 29.89 inHg 57% 0.00″
09/30/2022 02:40 AM 54.7°F 54.7°F / 55.6°F 54.7°F / 56.1°F 29.88 inHg 54% 0.00″
09/30/2022 02:10 AM 55.6°F 55.6°F / 55.6°F 55.2°F / 56.1°F 29.89 inHg 51% 0.00″
09/30/2022 01:40 AM 55.4°F 55.2°F / 55.8°F 55.2°F / 56.1°F 29.89 inHg 52% 0.00″
09/30/2022 01:10 AM 55.6°F 55.6°F / 55.8°F 55.6°F / 56.1°F 29.90 inHg 51% 0.00″
09/30/2022 12:09 AM 55.9°F 55.9°F / 55.9°F 55.9°F / 55.9°F 29.91 inHg 50% 0.00″
09/29/2022 11:39 PM 56.3°F 55.9°F / 56.5°F 49.5°F / 70.9°F 29.91 inHg 49% 0.00″
09/29/2022 11:09 PM 56.1°F 55.9°F / 56.1°F 49.5°F / 70.9°F 29.92 inHg 50% 0.00″
09/29/2022 10:39 PM 54.3°F 54.1°F / 54.7°F 49.5°F / 70.9°F 29.91 inHg 53% 0.00″
09/29/2022 10:09 PM 54.5°F 54.5°F / 54.7°F 49.5°F / 70.9°F 29.92 inHg 53% 0.00″
09/29/2022 09:39 PM 55.0°F 54.0°F / 55.0°F 49.5°F / 70.9°F 29.92 inHg 52% 0.00″
09/29/2022 09:09 PM 54.5°F 54.5°F / 54.9°F 49.5°F / 70.9°F 29.92 inHg 51% 0.00″
09/29/2022 08:38 PM 56.7°F 56.7°F / 57.6°F 49.5°F / 70.9°F 29.91 inHg 49% 0.00″
09/29/2022 08:08 PM 57.6°F 57.6°F / 57.6°F 49.5°F / 70.9°F 29.90 inHg 48% 0.00″
09/29/2022 07:38 PM 57.6°F 57.6°F / 59.4°F 49.5°F / 70.9°F 29.89 inHg 51% 0.00″
09/29/2022 07:08 PM 58.8°F 58.8°F / 59.4°F 49.5°F / 70.9°F 29.88 inHg 49% 0.00″
09/29/2022 06:38 PM 61.5°F 61.5°F / 67.8°F 49.5°F / 70.9°F 29.88 inHg 46% 0.00″
09/29/2022 06:08 PM 66.7°F 66.7°F / 67.8°F 49.5°F / 70.9°F 29.88 inHg 42% 0.00″
09/29/2022 05:38 PM 68.5°F 68.5°F / 69.3°F 49.5°F / 70.9°F 29.89 inHg 37% 0.00″
09/29/2022 05:07 PM 68.9°F 68.9°F / 69.3°F 49.5°F / 70.9°F 29.89 inHg 37% 0.00″
09/29/2022 04:37 PM 70.2°F 70.2°F / 70.5°F 49.5°F / 70.9°F 29.90 inHg 34% 0.00″
09/29/2022 04:07 PM 70.3°F 70.3°F / 70.5°F 49.5°F / 70.9°F 29.91 inHg 36% 0.00″
09/29/2022 03:37 PM 70.9°F 69.6°F / 70.9°F 49.5°F / 70.9°F 29.91 inHg 36% 0.00″
09/29/2022 03:07 PM 69.8°F 69.6°F / 70.0°F 49.5°F / 70.0°F 29.92 inHg 38% 0.00″
09/29/2022 02:37 PM 69.6°F 69.3°F / 70.0°F 49.5°F / 70.0°F 29.93 inHg 38% 0.00″
09/29/2022 02:07 PM 70.0°F 69.6°F / 70.0°F 49.5°F / 70.0°F 29.95 inHg 36% 0.00″
09/29/2022 01:35 PM 68.7°F 68.4°F / 68.7°F 49.5°F / 68.7°F 29.97 inHg 37% 0.00″
09/29/2022 01:05 PM 68.5°F 68.5°F / 68.5°F 49.5°F / 68.7°F 29.99 inHg 34% 0.00″
09/29/2022 11:45 AM 66.6°F 64.9°F / 66.6°F 49.5°F / 66.6°F 30.02 inHg 33% 0.00″
09/29/2022 11:15 AM 65.7°F 64.9°F / 65.7°F 49.5°F / 65.7°F 30.03 inHg 35% 0.00″
09/29/2022 10:45 AM 64.8°F 62.2°F / 64.8°F 49.5°F / 64.8°F 30.04 inHg 35% 0.00″
09/29/2022 10:15 AM 63.1°F 62.2°F / 63.1°F 49.5°F / 63.1°F 30.04 inHg 40% 0.00″
09/29/2022 09:13 AM 56.8°F 55.9°F / 56.8°F 49.5°F / 56.8°F 30.04 inHg 48% 0.00″
09/29/2022 08:43 AM 55.2°F 53.4°F / 55.2°F 49.5°F / 56.5°F 30.04 inHg 49% 0.00″
09/29/2022 08:13 AM 54.0°F 53.4°F / 54.0°F 49.5°F / 56.5°F 30.04 inHg 46% 0.00″
09/29/2022 07:43 AM 53.1°F 50.2°F / 53.1°F 49.5°F / 56.5°F 30.04 inHg 46% 0.00″
09/29/2022 07:13 AM 51.4°F 50.2°F / 51.4°F 49.5°F / 56.5°F 30.04 inHg 48% 0.00″
09/29/2022 06:43 AM 49.6°F 49.6°F / 50.7°F 49.6°F / 56.5°F 30.04 inHg 52% 0.00″
09/29/2022 06:12 AM 50.4°F 50.4°F / 50.7°F 50.4°F / 56.5°F 30.04 inHg 51% 0.00″
09/29/2022 05:42 AM 51.3°F 51.3°F / 53.1°F 51.3°F / 56.5°F 30.04 inHg 50% 0.00″
09/29/2022 05:11 AM 52.5°F 52.5°F / 53.1°F 52.5°F / 56.5°F 30.04 inHg 48% 0.00″
09/29/2022 04:41 AM 53.8°F 53.8°F / 55.8°F 53.8°F / 56.5°F 30.04 inHg 46% 0.00″
09/29/2022 04:11 AM 55.6°F 55.6°F / 55.8°F 55.6°F / 56.5°F 30.04 inHg 44% 0.00″
09/29/2022 03:41 AM 55.9°F 55.9°F / 56.1°F 55.6°F / 56.5°F 30.04 inHg 44% 0.00″
09/29/2022 03:11 AM 56.1°F 55.9°F / 56.1°F 55.6°F / 56.5°F 30.05 inHg 42% 0.00″
09/29/2022 02:39 AM 55.8°F 55.6°F / 55.8°F 55.6°F / 56.5°F 30.05 inHg 43% 0.00″
09/29/2022 02:09 AM 55.6°F 55.6°F / 55.8°F 55.6°F / 56.5°F 30.05 inHg 44% 0.00″
09/29/2022 01:39 AM 55.8°F 55.8°F / 56.3°F 55.8°F / 56.5°F 30.06 inHg 43% 0.00″
09/29/2022 01:09 AM 56.1°F 56.1°F / 56.3°F 56.1°F / 56.5°F 30.06 inHg 42% 0.00″
09/29/2022 12:39 AM 56.5°F 56.3°F / 56.5°F 56.3°F / 56.5°F 30.07 inHg 42% 0.00″
09/29/2022 12:09 AM 56.5°F 56.5°F / 56.5°F 56.5°F / 56.5°F 30.07 inHg 41% 0.00″
09/28/2022 11:39 PM 56.3°F 56.1°F / 56.5°F 48.0°F / 72.5°F 30.06 inHg 42% 0.00″
09/28/2022 11:09 PM 56.5°F 56.1°F / 56.5°F 48.0°F / 72.5°F 30.07 inHg 42% 0.00″
09/28/2022 10:38 PM 56.5°F 56.5°F / 57.7°F 48.0°F / 72.5°F 30.07 inHg 42% 0.00″
09/28/2022 10:08 PM 57.6°F 57.6°F / 57.7°F 48.0°F / 72.5°F 30.06 inHg 41% 0.00″
09/28/2022 09:38 PM 58.5°F 58.5°F / 59.0°F 48.0°F / 72.5°F 30.05 inHg 40% 0.00″
09/28/2022 09:08 PM 58.6°F 58.6°F / 59.0°F 48.0°F / 72.5°F 30.05 inHg 40% 0.00″
09/28/2022 08:38 PM 59.4°F 59.2°F / 59.7°F 48.0°F / 72.5°F 30.04 inHg 40% 0.00″
09/28/2022 08:08 PM 59.5°F 59.5°F / 59.7°F 48.0°F / 72.5°F 30.02 inHg 40% 0.00″
09/28/2022 07:38 PM 60.3°F 60.3°F / 63.7°F 48.0°F / 72.5°F 30.01 inHg 40% 0.00″
09/28/2022 07:07 PM 63.0°F 63.0°F / 63.7°F 48.0°F / 72.5°F 30.01 inHg 39% 0.00″
09/28/2022 06:37 PM 65.8°F 65.8°F / 68.7°F 48.0°F / 72.5°F 30.01 inHg 35% 0.00″
09/28/2022 06:07 PM 68.4°F 68.4°F / 68.7°F 48.0°F / 72.5°F 30.00 inHg 33% 0.00″
09/28/2022 05:37 PM 69.6°F 69.6°F / 71.1°F 48.0°F / 72.5°F 29.99 inHg 32% 0.00″
09/28/2022 05:07 PM 70.7°F 70.7°F / 71.1°F 48.0°F / 72.5°F 30.00 inHg 32% 0.00″
09/28/2022 04:09 PM 71.2°F 71.2°F / 71.4°F 48.0°F / 72.5°F 30.01 inHg 30% 0.00″
09/28/2022 03:39 PM 72.0°F 72.0°F / 72.5°F 48.0°F / 72.5°F 30.01 inHg 33% 0.00″
09/28/2022 03:09 PM 72.1°F 72.1°F / 72.1°F 48.0°F / 72.1°F 30.01 inHg 32% 0.00″
09/28/2022 02:04 PM 71.4°F 71.2°F / 71.4°F 48.0°F / 72.0°F 30.04 inHg 36% 0.00″
09/28/2022 01:34 PM 71.4°F 70.7°F / 71.4°F 48.0°F / 71.4°F 30.05 inHg 37% 0.00″
09/28/2022 01:04 PM 71.1°F 71.1°F / 71.1°F 48.0°F / 71.1°F 30.06 inHg 34% 0.00″
09/28/2022 12:34 PM 70.0°F 68.7°F / 70.0°F 48.0°F / 70.0°F 30.07 inHg 39% 0.00″
09/28/2022 12:04 PM 69.1°F 69.1°F / 69.6°F 48.0°F / 70.0°F 30.07 inHg 38% 0.00″
09/28/2022 11:34 AM 68.9°F 68.5°F / 68.9°F 48.0°F / 68.9°F 30.08 inHg 41% 0.00″
09/28/2022 11:04 AM 68.5°F 68.5°F / 68.5°F 48.0°F / 68.5°F 30.08 inHg 42% 0.00″
09/28/2022 10:31 AM 66.6°F 62.6°F / 66.6°F 48.0°F / 66.6°F 30.09 inHg 44% 0.00″
09/28/2022 10:01 AM 62.8°F 62.6°F / 62.8°F 48.0°F / 62.8°F 30.08 inHg 53% 0.00″
09/28/2022 09:31 AM 57.6°F 52.5°F / 57.6°F 48.0°F / 57.7°F 30.09 inHg 65% 0.00″
09/28/2022 09:01 AM 52.9°F 52.5°F / 52.9°F 48.0°F / 57.7°F 30.08 inHg 72% 0.00″
09/28/2022 08:31 AM 50.2°F 49.5°F / 50.2°F 48.0°F / 57.7°F 30.07 inHg 73% 0.00″
09/28/2022 08:01 AM 49.5°F 49.5°F / 49.5°F 48.0°F / 57.7°F 30.07 inHg 72% 0.00″
09/28/2022 07:31 AM 48.7°F 48.0°F / 48.7°F 48.0°F / 57.7°F 30.06 inHg 70% 0.00″
09/28/2022 07:01 AM 48.0°F 48.0°F / 48.0°F 48.0°F / 57.7°F 30.06 inHg 70% 0.00″
09/28/2022 06:30 AM 48.6°F 48.6°F / 48.9°F 48.6°F / 57.7°F 30.04 inHg 69% 0.00″
09/28/2022 05:30 AM 49.5°F 49.5°F / 52.2°F 49.5°F / 57.7°F 30.03 inHg 67% 0.00″
09/28/2022 05:00 AM 52.2°F 52.2°F / 52.2°F 52.2°F / 57.7°F 30.02 inHg 64% 0.00″
09/28/2022 04:30 AM 53.2°F 53.1°F / 53.2°F 53.1°F / 57.7°F 30.02 inHg 65% 0.00″
09/28/2022 04:00 AM 53.2°F 53.2°F / 53.2°F 53.2°F / 57.7°F 30.02 inHg 64% 0.00″
09/28/2022 03:30 AM 53.6°F 53.2°F / 53.6°F 53.2°F / 57.7°F 30.03 inHg 64% 0.00″
09/28/2022 02:59 AM 53.2°F 53.2°F / 54.5°F 53.2°F / 57.7°F 30.03 inHg 65% 0.00″
09/28/2022 02:29 AM 54.0°F 53.8°F / 54.5°F 53.8°F / 57.7°F 30.03 inHg 64% 0.00″
09/28/2022 01:59 AM 54.5°F 54.5°F / 56.5°F 54.5°F / 57.7°F 30.03 inHg 63% 0.00″
09/28/2022 01:29 AM 55.6°F 55.6°F / 56.5°F 55.6°F / 57.7°F 30.03 inHg 61% 0.00″
09/28/2022 12:58 AM 56.5°F 56.5°F / 57.7°F 56.5°F / 57.7°F 30.02 inHg 59% 0.00″
09/28/2022 12:28 AM 57.4°F 57.4°F / 57.7°F 57.4°F / 57.7°F 30.03 inHg 57% 0.00″
09/27/2022 11:58 PM 57.7°F 57.7°F / 58.3°F 47.7°F / 73.0°F 30.03 inHg 56% 0.00″
09/27/2022 11:27 PM 58.3°F 57.9°F / 58.3°F 47.7°F / 73.0°F 30.02 inHg 57% 0.00″
09/27/2022 10:57 PM 58.1°F 58.1°F / 58.6°F 47.7°F / 73.0°F 30.02 inHg 58% 0.00″
09/27/2022 10:27 PM 58.6°F 58.5°F / 58.6°F 47.7°F / 73.0°F 30.01 inHg 58% 0.00″
09/27/2022 09:57 PM 58.3°F 56.8°F / 58.3°F 47.7°F / 73.0°F 30.01 inHg 58% 0.00″
09/27/2022 09:27 PM 57.6°F 56.8°F / 57.6°F 47.7°F / 73.0°F 30.01 inHg 60% 0.00″
09/27/2022 08:57 PM 57.2°F 57.2°F / 60.1°F 47.7°F / 73.0°F 30.00 inHg 60% 0.00″
09/27/2022 08:26 PM 58.5°F 58.5°F / 60.1°F 47.7°F / 73.0°F 29.99 inHg 58% 0.00″
09/27/2022 07:56 PM 60.3°F 60.3°F / 66.9°F 47.7°F / 73.0°F 29.98 inHg 55% 0.00″
09/27/2022 07:26 PM 62.4°F 62.4°F / 66.9°F 47.7°F / 73.0°F 29.96 inHg 49% 0.00″
09/27/2022 05:53 PM 72.9°F 72.3°F / 72.9°F 47.7°F / 73.0°F 29.94 inHg 37% 0.00″
09/27/2022 05:23 PM 72.5°F 72.5°F / 72.7°F 47.7°F / 73.0°F 29.95 inHg 37% 0.00″
09/27/2022 04:53 PM 72.7°F 71.4°F / 72.7°F 47.7°F / 73.0°F 29.94 inHg 37% 0.00″
09/27/2022 04:23 PM 72.0°F 71.4°F / 72.0°F 47.7°F / 73.0°F 29.95 inHg 38% 0.00″
09/27/2022 03:53 PM 72.0°F 72.0°F / 73.0°F 47.7°F / 73.0°F 29.95 inHg 41% 0.00″
09/27/2022 02:29 PM 72.1°F 71.1°F / 72.1°F 47.7°F / 72.1°F 29.97 inHg 49% 0.00″
09/27/2022 01:59 PM 71.1°F 67.5°F / 71.1°F 47.7°F / 71.1°F 29.99 inHg 55% 0.00″
09/27/2022 01:29 PM 67.5°F 67.5°F / 68.4°F 47.7°F / 68.7°F 30.00 inHg 54% 0.00″
09/27/2022 12:59 PM 68.2°F 67.5°F / 68.7°F 47.7°F / 68.7°F 30.01 inHg 51% 0.00″
09/27/2022 12:29 PM 68.7°F 67.5°F / 68.7°F 47.7°F / 68.7°F 30.02 inHg 50% 0.00″
09/27/2022 10:44 AM 65.1°F 61.2°F / 65.1°F 47.7°F / 65.1°F 30.04 inHg 60% 0.00″
09/27/2022 10:14 AM 62.4°F 61.2°F / 62.4°F 47.7°F / 62.4°F 30.04 inHg 62% 0.00″
09/27/2022 09:43 AM 59.0°F 53.1°F / 59.0°F 47.7°F / 59.0°F 30.04 inHg 70% 0.00″
09/27/2022 09:13 AM 54.5°F 53.1°F / 54.5°F 47.7°F / 57.0°F 30.05 inHg 79% 0.00″
09/27/2022 08:43 AM 51.4°F 49.1°F / 51.4°F 47.7°F / 57.0°F 30.04 inHg 81% 0.00″
09/27/2022 08:13 AM 49.6°F 49.1°F / 49.6°F 47.7°F / 57.0°F 30.04 inHg 79% 0.00″
09/27/2022 07:43 AM 48.4°F 47.7°F / 48.4°F 47.7°F / 57.0°F 30.03 inHg 79% 0.00″
09/27/2022 07:13 AM 47.7°F 47.7°F / 47.8°F 47.7°F / 57.0°F 30.02 inHg 76% 0.00″
09/27/2022 06:43 AM 47.8°F 47.8°F / 49.3°F 47.8°F / 57.0°F 30.01 inHg 74% 0.00″
09/27/2022 06:13 AM 48.9°F 48.9°F / 49.3°F 48.6°F / 57.0°F 30.01 inHg 69% 0.00″
09/27/2022 05:43 AM 49.1°F 48.6°F / 49.1°F 48.6°F / 57.0°F 29.99 inHg 69% 0.00″
09/27/2022 05:13 AM 48.6°F 48.6°F / 48.7°F 48.6°F / 57.0°F 29.98 inHg 72% 0.00″
09/27/2022 04:43 AM 49.3°F 49.3°F / 49.8°F 49.3°F / 57.0°F 29.97 inHg 76% 0.00″
09/27/2022 04:12 AM 49.6°F 49.6°F / 49.8°F 49.6°F / 57.0°F 29.97 inHg 75% 0.00″
09/27/2022 03:42 AM 50.4°F 50.4°F / 50.9°F 50.4°F / 57.0°F 29.96 inHg 76% 0.00″
09/27/2022 03:12 AM 50.7°F 50.7°F / 50.9°F 50.7°F / 57.0°F 29.96 inHg 75% 0.00″
09/27/2022 02:42 AM 51.3°F 51.3°F / 52.3°F 51.3°F / 57.0°F 29.96 inHg 75% 0.00″
09/27/2022 02:12 AM 52.0°F 52.0°F / 52.3°F 52.0°F / 57.0°F 29.96 inHg 73% 0.00″
09/27/2022 01:42 AM 53.1°F 53.1°F / 54.5°F 53.1°F / 57.0°F 29.96 inHg 71% 0.00″
09/27/2022 01:11 AM 54.0°F 54.0°F / 54.5°F 54.0°F / 57.0°F 29.96 inHg 70% 0.00″
09/27/2022 12:41 AM 55.0°F 55.0°F / 57.0°F 55.0°F / 57.0°F 29.95 inHg 69% 0.00″
09/27/2022 12:11 AM 56.5°F 56.5°F / 57.0°F 56.5°F / 57.0°F 29.96 inHg 67% 0.00″
09/26/2022 11:41 PM 57.9°F 57.9°F / 59.0°F 55.9°F / 70.0°F 29.96 inHg 65% 0.01″
09/26/2022 11:11 PM 58.8°F 58.8°F / 59.0°F 55.9°F / 70.0°F 29.97 inHg 64% 0.01″
09/26/2022 10:41 PM 59.2°F 59.2°F / 59.9°F 55.9°F / 70.0°F 29.97 inHg 63% 0.01″
09/26/2022 10:11 PM 59.7°F 59.7°F / 59.9°F 55.9°F / 70.0°F 29.96 inHg 63% 0.01″
09/26/2022 09:41 PM 59.9°F 58.8°F / 59.9°F 55.9°F / 70.0°F 29.96 inHg 62% 0.01″
09/26/2022 09:11 PM 59.5°F 58.8°F / 59.5°F 55.9°F / 70.0°F 29.96 inHg 63% 0.01″
09/26/2022 08:41 PM 58.1°F 57.6°F / 58.5°F 55.9°F / 70.0°F 29.94 inHg 67% 0.01″
09/26/2022 08:10 PM 57.7°F 57.7°F / 58.5°F 55.9°F / 70.0°F 29.93 inHg 68% 0.01″
09/26/2022 07:40 PM 59.5°F 59.5°F / 63.3°F 55.9°F / 70.0°F 29.91 inHg 66% 0.01″
09/26/2022 07:10 PM 61.9°F 61.9°F / 63.3°F 55.9°F / 70.0°F 29.91 inHg 66% 0.01″
09/26/2022 06:40 PM 67.3°F 67.3°F / 68.2°F 55.9°F / 70.0°F 29.90 inHg 59% 0.01″
09/26/2022 06:10 PM 68.0°F 67.3°F / 68.0°F 55.9°F / 70.0°F 29.90 inHg 56% 0.01″
09/26/2022 05:40 PM 66.2°F 65.8°F / 66.9°F 55.9°F / 70.0°F 29.90 inHg 58% 0.01″
09/26/2022 05:10 PM 66.4°F 66.4°F / 66.9°F 55.9°F / 70.0°F 29.90 inHg 59% 0.01″
09/26/2022 04:40 PM 68.5°F 68.5°F / 70.0°F 55.9°F / 70.0°F 29.89 inHg 54% 0.01″
09/26/2022 04:10 PM 69.1°F 68.5°F / 69.1°F 55.9°F / 69.1°F 29.89 inHg 59% 0.01″
09/26/2022 03:38 PM 67.1°F 65.8°F / 67.1°F 55.9°F / 68.9°F 29.90 inHg 62% 0.01″
09/26/2022 03:07 PM 65.8°F 65.8°F / 65.8°F 55.9°F / 68.9°F 29.91 inHg 61% 0.01″
09/26/2022 02:37 PM 65.7°F 65.7°F / 66.9°F 55.9°F / 68.9°F 29.91 inHg 66% 0.01″
09/26/2022 02:07 PM 66.9°F 66.7°F / 66.9°F 55.9°F / 68.9°F 29.92 inHg 65% 0.01″
09/26/2022 01:37 PM 66.2°F 65.1°F / 66.2°F 55.9°F / 68.9°F 29.94 inHg 60% 0.01″
09/26/2022 01:07 PM 65.5°F 65.1°F / 65.7°F 55.9°F / 68.9°F 29.94 inHg 63% 0.01″
09/26/2022 12:37 PM 66.0°F 66.0°F / 67.6°F 55.9°F / 68.9°F 29.96 inHg 62% 0.00″
09/26/2022 12:06 PM 67.5°F 67.5°F / 67.6°F 55.9°F / 68.9°F 29.96 inHg 56% 0.00″
09/26/2022 11:36 AM 68.5°F 66.4°F / 68.9°F 55.9°F / 68.9°F 29.96 inHg 56% 0.00″
09/26/2022 11:06 AM 67.1°F 66.4°F / 67.1°F 55.9°F / 67.1°F 29.97 inHg 56% 0.00″
09/26/2022 08:39 AM 58.5°F 57.2°F / 58.5°F 55.9°F / 61.5°F 29.94 inHg 72% 0.00″
09/26/2022 08:09 AM 57.4°F 57.2°F / 57.4°F 55.9°F / 61.5°F 29.94 inHg 74% 0.00″
09/26/2022 07:39 AM 57.0°F 55.9°F / 57.2°F 55.9°F / 61.5°F 29.93 inHg 73% 0.00″
09/26/2022 07:08 AM 56.1°F 55.9°F / 56.1°F 55.9°F / 61.5°F 29.93 inHg 76% 0.00″
09/26/2022 06:38 AM 56.5°F 56.5°F / 57.0°F 56.5°F / 61.5°F 29.91 inHg 73% 0.00″
09/26/2022 06:06 AM 57.0°F 57.0°F / 57.0°F 56.5°F / 61.5°F 29.91 inHg 72% 0.00″
09/26/2022 05:36 AM 56.5°F 56.5°F / 58.5°F 56.5°F / 61.5°F 29.90 inHg 67% 0.00″
09/26/2022 05:06 AM 58.3°F 58.3°F / 58.5°F 58.3°F / 61.5°F 29.89 inHg 55% 0.00″
09/26/2022 04:35 AM 59.2°F 59.2°F / 59.7°F 58.8°F / 61.5°F 29.88 inHg 49% 0.00″
09/26/2022 04:05 AM 59.7°F 59.5°F / 59.7°F 58.8°F / 61.5°F 29.88 inHg 50% 0.00″
09/26/2022 03:35 AM 59.4°F 59.2°F / 59.4°F 58.8°F / 61.5°F 29.88 inHg 53% 0.00″
09/26/2022 03:05 AM 59.2°F 59.2°F / 59.2°F 58.8°F / 61.5°F 29.88 inHg 56% 0.00″
09/26/2022 02:35 AM 59.2°F 59.2°F / 59.2°F 58.8°F / 61.5°F 29.88 inHg 57% 0.00″
09/26/2022 02:05 AM 59.2°F 59.2°F / 59.2°F 58.8°F / 61.5°F 29.88 inHg 60% 0.00″
09/26/2022 01:35 AM 58.8°F 58.8°F / 59.5°F 58.8°F / 61.5°F 29.89 inHg 61% 0.00″
09/26/2022 01:05 AM 59.5°F 59.4°F / 59.5°F 59.4°F / 61.5°F 29.89 inHg 62% 0.00″
09/26/2022 12:35 AM 60.3°F 60.3°F / 61.5°F 60.3°F / 61.5°F 29.89 inHg 65% 0.00″
09/26/2022 12:05 AM 61.3°F 61.3°F / 61.5°F 61.3°F / 61.5°F 29.89 inHg 62% 0.00″
09/25/2022 11:35 PM 61.9°F 61.7°F / 62.1°F 58.8°F / 74.3°F 29.89 inHg 59% 0.00″
09/25/2022 11:05 PM 62.1°F 62.1°F / 62.1°F 58.8°F / 74.3°F 29.89 inHg 60% 0.00″
09/25/2022 10:35 PM 61.5°F 61.3°F / 61.5°F 58.8°F / 74.3°F 29.88 inHg 62% 0.00″
09/25/2022 10:05 PM 61.5°F 61.3°F / 61.5°F 58.8°F / 74.3°F 29.88 inHg 63% 0.00″
09/25/2022 09:34 PM 61.7°F 61.7°F / 62.2°F 58.8°F / 74.3°F 29.88 inHg 63% 0.00″
09/25/2022 09:04 PM 62.1°F 62.1°F / 62.2°F 58.8°F / 74.3°F 29.88 inHg 61% 0.00″
09/25/2022 08:34 PM 63.1°F 63.1°F / 63.9°F 58.8°F / 74.3°F 29.87 inHg 58% 0.00″
09/25/2022 08:04 PM 63.9°F 63.9°F / 63.9°F 58.8°F / 74.3°F 29.86 inHg 55% 0.00″
09/25/2022 07:34 PM 64.2°F 64.2°F / 65.3°F 58.8°F / 74.3°F 29.85 inHg 56% 0.00″
09/25/2022 07:04 PM 65.1°F 65.1°F / 65.3°F 58.8°F / 74.3°F 29.84 inHg 53% 0.00″
09/25/2022 06:34 PM 65.8°F 65.8°F / 66.9°F 58.8°F / 74.3°F 29.83 inHg 52% 0.00″
09/25/2022 06:04 PM 66.7°F 66.7°F / 66.9°F 58.8°F / 74.3°F 29.83 inHg 49% 0.00″
09/25/2022 05:34 PM 68.7°F 68.7°F / 70.2°F 58.8°F / 74.3°F 29.82 inHg 48% 0.00″
09/25/2022 05:04 PM 70.0°F 70.0°F / 70.2°F 58.8°F / 74.3°F 29.81 inHg 48% 0.00″
09/25/2022 04:34 PM 70.5°F 70.5°F / 72.7°F 58.8°F / 74.3°F 29.82 inHg 43% 0.00″
09/25/2022 04:04 PM 72.5°F 72.5°F / 72.7°F 58.8°F / 74.3°F 29.82 inHg 40% 0.00″
09/25/2022 03:34 PM 71.4°F 71.2°F / 72.1°F 58.8°F / 74.3°F 29.82 inHg 45% 0.00″
09/25/2022 03:03 PM 72.1°F 72.0°F / 72.1°F 58.8°F / 74.3°F 29.83 inHg 36% 0.00″
09/25/2022 02:33 PM 73.6°F 72.9°F / 74.3°F 58.8°F / 74.3°F 29.82 inHg 36% 0.00″
09/25/2022 02:03 PM 74.1°F 73.8°F / 74.1°F 58.8°F / 74.1°F 29.83 inHg 39% 0.00″
09/25/2022 01:33 PM 72.0°F 71.1°F / 72.0°F 58.8°F / 72.0°F 29.84 inHg 36% 0.00″
09/25/2022 01:01 PM 71.4°F 71.4°F / 71.4°F 58.8°F / 71.4°F 29.85 inHg 39% 0.00″
09/25/2022 12:31 PM 70.2°F 67.6°F / 70.2°F 58.8°F / 70.2°F 29.85 inHg 39% 0.00″
09/25/2022 11:23 AM 66.7°F 66.6°F / 66.7°F 58.8°F / 66.7°F 29.86 inHg 47% 0.00″
09/25/2022 10:49 AM 66.0°F 64.9°F / 66.0°F 58.8°F / 66.0°F 29.86 inHg 51% 0.00″
09/25/2022 10:19 AM 65.1°F 64.9°F / 65.1°F 58.8°F / 65.5°F 29.86 inHg 53% 0.00″
09/25/2022 09:49 AM 64.9°F 64.8°F / 64.9°F 58.8°F / 65.5°F 29.86 inHg 49% 0.00″
09/25/2022 09:19 AM 64.8°F 64.8°F / 64.9°F 58.8°F / 65.5°F 29.84 inHg 48% 0.00″
09/25/2022 08:49 AM 64.9°F 64.9°F / 65.5°F 58.8°F / 65.5°F 29.83 inHg 51% 0.00″
09/25/2022 08:19 AM 65.5°F 65.1°F / 65.5°F 58.8°F / 65.5°F 29.83 inHg 48% 0.00″
09/25/2022 07:49 AM 64.8°F 63.7°F / 64.8°F 58.8°F / 64.8°F 29.82 inHg 46% 0.00″
09/25/2022 07:19 AM 64.0°F 63.7°F / 64.0°F 58.8°F / 64.0°F 29.81 inHg 50% 0.00″
09/25/2022 06:49 AM 63.1°F 63.0°F / 63.1°F 58.8°F / 63.9°F 29.81 inHg 50% 0.00″
09/25/2022 06:19 AM 63.0°F 63.0°F / 63.0°F 58.8°F / 63.9°F 29.81 inHg 49% 0.00″
09/25/2022 05:49 AM 63.0°F 62.8°F / 63.3°F 58.8°F / 63.9°F 29.80 inHg 50% 0.00″
09/25/2022 05:19 AM 63.0°F 63.0°F / 63.3°F 58.8°F / 63.9°F 29.79 inHg 52% 0.00″
09/25/2022 04:49 AM 63.7°F 63.5°F / 63.9°F 58.8°F / 63.9°F 29.79 inHg 51% 0.00″
09/25/2022 04:19 AM 63.7°F 63.5°F / 63.7°F 58.8°F / 63.7°F 29.79 inHg 50% 0.00″
09/25/2022 03:49 AM 63.7°F 62.1°F / 63.7°F 58.8°F / 63.7°F 29.79 inHg 46% 0.00″
09/25/2022 03:19 AM 63.3°F 62.1°F / 63.3°F 58.8°F / 63.3°F 29.79 inHg 39% 0.00″
09/25/2022 02:49 AM 60.1°F 58.8°F / 60.4°F 58.8°F / 61.0°F 29.79 inHg 47% 0.00″
09/25/2022 02:19 AM 60.3°F 58.8°F / 60.3°F 58.8°F / 61.0°F 29.80 inHg 53% 0.00″
09/25/2022 01:49 AM 58.8°F 58.8°F / 60.8°F 58.8°F / 61.0°F 29.79 inHg 59% 0.00″
09/25/2022 01:18 AM 60.3°F 60.3°F / 60.8°F 60.3°F / 61.0°F 29.79 inHg 57% 0.00″
09/24/2022 10:35 PM 60.6°F 59.9°F / 60.6°F 56.5°F / 78.4°F 29.81 inHg 57% 0.00″
09/24/2022 10:05 PM 60.1°F 59.9°F / 60.1°F 56.5°F / 78.4°F 29.82 inHg 60% 0.00″
09/24/2022 09:35 PM 59.5°F 59.5°F / 60.6°F 56.5°F / 78.4°F 29.82 inHg 61% 0.00″
09/24/2022 08:13 PM 63.0°F 63.0°F / 64.2°F 56.5°F / 78.4°F 29.79 inHg 59% 0.00″
09/24/2022 07:43 PM 65.5°F 65.5°F / 70.0°F 56.5°F / 78.4°F 29.78 inHg 57% 0.00″
09/24/2022 07:13 PM 67.6°F 67.6°F / 70.0°F 56.5°F / 78.4°F 29.77 inHg 52% 0.00″
09/24/2022 06:43 PM 75.7°F 75.7°F / 78.4°F 56.5°F / 78.4°F 29.77 inHg 41% 0.00″
09/24/2022 06:13 PM 78.3°F 78.3°F / 78.4°F 56.5°F / 78.4°F 29.77 inHg 36% 0.00″
09/24/2022 05:43 PM 77.9°F 77.5°F / 78.1°F 56.5°F / 78.1°F 29.76 inHg 37% 0.00″
09/24/2022 05:12 PM 77.9°F 77.5°F / 77.9°F 56.5°F / 77.9°F 29.76 inHg 37% 0.00″
09/24/2022 04:42 PM 76.6°F 76.6°F / 77.5°F 56.5°F / 77.5°F 29.77 inHg 41% 0.00″
09/24/2022 04:12 PM 76.8°F 76.8°F / 77.5°F 56.5°F / 77.5°F 29.78 inHg 38% 0.00″
09/24/2022 03:42 PM 76.8°F 76.6°F / 77.5°F 56.5°F / 77.5°F 29.78 inHg 37% 0.00″
09/24/2022 03:11 PM 77.0°F 76.6°F / 77.0°F 56.5°F / 77.0°F 29.79 inHg 40% 0.00″
09/24/2022 02:41 PM 76.8°F 76.1°F / 77.0°F 56.5°F / 77.0°F 29.80 inHg 41% 0.00″
09/24/2022 02:11 PM 76.3°F 76.1°F / 76.3°F 56.5°F / 76.3°F 29.81 inHg 44% 0.00″
09/24/2022 01:41 PM 75.9°F 75.0°F / 75.9°F 56.5°F / 75.9°F 29.82 inHg 47% 0.00″
09/24/2022 01:11 PM 75.2°F 75.0°F / 75.4°F 56.5°F / 75.4°F 29.83 inHg 44% 0.00″
09/24/2022 11:42 AM 73.8°F 72.7°F / 73.8°F 56.5°F / 73.8°F 29.85 inHg 48% 0.00″
09/24/2022 11:12 AM 73.2°F 72.7°F / 73.2°F 56.5°F / 73.2°F 29.85 inHg 49% 0.00″
09/24/2022 10:42 AM 71.8°F 67.8°F / 71.8°F 56.5°F / 71.8°F 29.84 inHg 53% 0.00″
09/24/2022 10:12 AM 69.6°F 67.8°F / 69.6°F 56.5°F / 69.6°F 29.85 inHg 55% 0.00″
09/24/2022 09:42 AM 64.8°F 60.3°F / 64.8°F 56.5°F / 64.8°F 29.84 inHg 64% 0.00″
09/24/2022 09:12 AM 61.3°F 60.3°F / 61.3°F 56.5°F / 61.3°F 29.84 inHg 73% 0.00″
09/24/2022 08:42 AM 58.5°F 56.5°F / 58.5°F 56.5°F / 61.2°F 29.84 inHg 76% 0.00″
09/24/2022 08:11 AM 56.8°F 56.5°F / 56.8°F 56.5°F / 61.2°F 29.83 inHg 74% 0.00″
09/24/2022 07:41 AM 56.8°F 56.8°F / 57.7°F 56.8°F / 61.2°F 29.83 inHg 72% 0.00″
09/24/2022 07:11 AM 57.6°F 57.6°F / 57.7°F 56.8°F / 61.2°F 29.82 inHg 70% 0.00″
09/24/2022 06:41 AM 57.7°F 57.4°F / 57.9°F 56.8°F / 61.2°F 29.82 inHg 69% 0.00″
09/24/2022 06:11 AM 57.7°F 57.4°F / 57.7°F 56.8°F / 61.2°F 29.81 inHg 68% 0.00″
09/24/2022 05:41 AM 57.0°F 57.0°F / 57.7°F 57.0°F / 61.2°F 29.81 inHg 69% 0.00″
09/24/2022 05:10 AM 57.7°F 57.7°F / 57.7°F 57.7°F / 61.2°F 29.80 inHg 68% 0.00″
09/24/2022 04:40 AM 58.6°F 58.6°F / 60.1°F 58.5°F / 61.2°F 29.80 inHg 66% 0.00″
09/24/2022 04:10 AM 59.7°F 59.7°F / 60.1°F 58.5°F / 61.2°F 29.80 inHg 63% 0.00″
09/24/2022 03:40 AM 60.3°F 59.2°F / 60.3°F 58.5°F / 61.2°F 29.80 inHg 59% 0.00″
09/24/2022 03:09 AM 59.4°F 59.2°F / 59.4°F 58.5°F / 61.2°F 29.80 inHg 61% 0.00″
09/24/2022 02:39 AM 60.1°F 60.1°F / 60.6°F 58.5°F / 61.2°F 29.80 inHg 62% 0.00″
09/24/2022 02:09 AM 60.6°F 60.6°F / 60.6°F 58.5°F / 61.2°F 29.81 inHg 60% 0.00″
09/24/2022 01:39 AM 59.4°F 58.5°F / 59.4°F 58.5°F / 61.2°F 29.81 inHg 62% 0.00″
09/24/2022 01:09 AM 58.5°F 58.5°F / 59.0°F 58.5°F / 61.2°F 29.81 inHg 66% 0.00″
09/24/2022 12:39 AM 60.8°F 59.2°F / 61.2°F 59.2°F / 61.2°F 29.81 inHg 66% 0.00″
09/24/2022 12:09 AM 60.3°F 59.2°F / 60.3°F 59.2°F / 60.3°F 29.81 inHg 66% 0.00″
09/23/2022 11:39 PM 57.7°F 57.7°F / 58.6°F 54.5°F / 78.4°F 29.81 inHg 70% 0.00″
09/23/2022 10:39 PM 59.0°F 58.8°F / 59.2°F 54.5°F / 78.4°F 29.81 inHg 66% 0.00″
09/23/2022 09:08 PM 62.1°F 62.1°F / 62.6°F 54.5°F / 78.4°F 29.80 inHg 64% 0.00″
09/23/2022 08:38 PM 63.1°F 63.1°F / 64.6°F 54.5°F / 78.4°F 29.79 inHg 63% 0.00″
09/23/2022 08:08 PM 64.4°F 64.4°F / 64.6°F 54.5°F / 78.4°F 29.77 inHg 61% 0.00″
09/23/2022 07:38 PM 65.7°F 65.7°F / 70.9°F 54.5°F / 78.4°F 29.75 inHg 60% 0.00″
09/23/2022 07:08 PM 69.1°F 69.1°F / 70.9°F 54.5°F / 78.4°F 29.74 inHg 55% 0.00″
09/23/2022 06:38 PM 76.5°F 76.5°F / 77.4°F 54.5°F / 78.4°F 29.74 inHg 45% 0.00″
09/23/2022 06:08 PM 77.2°F 77.2°F / 77.4°F 54.5°F / 78.4°F 29.73 inHg 43% 0.00″
09/23/2022 04:40 PM 77.4°F 76.6°F / 77.4°F 54.5°F / 77.4°F 29.73 inHg 44% 0.00″
09/23/2022 04:10 PM 77.0°F 76.6°F / 77.0°F 54.5°F / 77.0°F 29.74 inHg 46% 0.00″
09/23/2022 02:55 PM 75.7°F 75.0°F / 75.9°F 54.5°F / 75.9°F 29.76 inHg 50% 0.00″
09/23/2022 02:25 PM 75.7°F 75.0°F / 75.9°F 54.5°F / 75.9°F 29.77 inHg 48% 0.00″
09/23/2022 01:55 PM 75.4°F 74.8°F / 75.4°F 54.5°F / 75.4°F 29.79 inHg 47% 0.00″
09/23/2022 01:25 PM 75.0°F 74.8°F / 75.4°F 54.5°F / 75.4°F 29.80 inHg 49% 0.00″
09/23/2022 12:55 PM 75.0°F 73.8°F / 75.0°F 54.5°F / 75.0°F 29.81 inHg 49% 0.00″
09/23/2022 12:25 PM 74.1°F 73.8°F / 74.1°F 54.5°F / 74.1°F 29.81 inHg 51% 0.00″
09/23/2022 11:55 AM 73.8°F 72.5°F / 73.8°F 54.5°F / 73.8°F 29.82 inHg 51% 0.00″
09/23/2022 09:13 AM 60.3°F 58.3°F / 60.3°F 54.5°F / 60.3°F 29.83 inHg 73% 0.00″
09/23/2022 08:43 AM 57.0°F 55.8°F / 57.0°F 54.5°F / 60.3°F 29.83 inHg 78% 0.00″
09/23/2022 08:13 AM 55.8°F 55.8°F / 55.8°F 54.5°F / 60.3°F 29.83 inHg 78% 0.00″
09/23/2022 07:43 AM 55.2°F 54.5°F / 55.2°F 54.5°F / 60.3°F 29.82 inHg 77% 0.00″
09/23/2022 07:13 AM 54.7°F 54.5°F / 54.7°F 54.5°F / 60.3°F 29.81 inHg 78% 0.00″
09/23/2022 06:43 AM 55.2°F 55.2°F / 56.3°F 55.2°F / 60.3°F 29.80 inHg 75% 0.00″
09/23/2022 06:12 AM 55.9°F 55.9°F / 56.3°F 55.6°F / 60.3°F 29.80 inHg 72% 0.00″
09/23/2022 05:42 AM 56.8°F 56.8°F / 58.8°F 55.6°F / 60.3°F 29.79 inHg 72% 0.00″
09/23/2022 05:12 AM 58.5°F 58.5°F / 58.8°F 55.6°F / 60.3°F 29.78 inHg 67% 0.00″
09/23/2022 04:42 AM 57.4°F 56.8°F / 57.4°F 55.6°F / 60.3°F 29.78 inHg 65% 0.00″
09/23/2022 04:12 AM 57.4°F 56.8°F / 57.4°F 55.6°F / 60.3°F 29.78 inHg 62% 0.00″
09/23/2022 03:42 AM 55.6°F 55.6°F / 56.1°F 55.6°F / 60.3°F 29.78 inHg 66% 0.00″
09/23/2022 03:12 AM 56.1°F 56.1°F / 56.1°F 56.1°F / 60.3°F 29.77 inHg 66% 0.00″
09/23/2022 02:42 AM 56.7°F 56.7°F / 57.6°F 56.7°F / 60.3°F 29.78 inHg 66% 0.00″
09/23/2022 02:12 AM 56.8°F 56.8°F / 57.6°F 56.8°F / 60.3°F 29.78 inHg 63% 0.00″
09/23/2022 01:41 AM 59.0°F 59.0°F / 60.3°F 57.4°F / 60.3°F 29.78 inHg 56% 0.00″
09/23/2022 01:11 AM 60.1°F 59.5°F / 60.1°F 57.4°F / 60.1°F 29.78 inHg 49% 0.00″
09/23/2022 12:41 AM 57.4°F 57.4°F / 59.4°F 57.4°F / 59.4°F 29.79 inHg 57% 0.00″
09/23/2022 12:11 AM 58.6°F 58.6°F / 59.4°F 58.6°F / 59.4°F 29.78 inHg 59% 0.00″
09/22/2022 11:41 PM 60.3°F 60.3°F / 62.2°F 59.7°F / 78.1°F 29.79 inHg 57% 0.00″
09/22/2022 11:11 PM 61.9°F 61.9°F / 62.2°F 59.7°F / 78.1°F 29.78 inHg 54% 0.00″
09/22/2022 10:41 PM 62.8°F 62.8°F / 63.7°F 59.7°F / 78.1°F 29.78 inHg 53% 0.00″
09/22/2022 10:11 PM 63.3°F 63.3°F / 63.7°F 59.7°F / 78.1°F 29.78 inHg 52% 0.00″
09/22/2022 09:41 PM 64.0°F 64.0°F / 64.8°F 59.7°F / 78.1°F 29.77 inHg 53% 0.00″
09/22/2022 09:11 PM 64.6°F 64.6°F / 64.8°F 59.7°F / 78.1°F 29.77 inHg 52% 0.00″
09/22/2022 08:41 PM 65.1°F 65.1°F / 66.0°F 59.7°F / 78.1°F 29.76 inHg 52% 0.00″
09/22/2022 08:11 PM 65.7°F 65.7°F / 66.0°F 59.7°F / 78.1°F 29.74 inHg 52% 0.00″
09/22/2022 07:41 PM 66.9°F 66.9°F / 71.6°F 59.7°F / 78.1°F 29.73 inHg 53% 0.00″
09/22/2022 07:11 PM 70.2°F 70.2°F / 71.6°F 59.7°F / 78.1°F 29.72 inHg 50% 0.00″
09/22/2022 06:41 PM 74.8°F 74.8°F / 76.8°F 59.7°F / 78.1°F 29.71 inHg 46% 0.00″
09/22/2022 06:11 PM 76.8°F 76.8°F / 76.8°F 59.7°F / 78.1°F 29.71 inHg 42% 0.00″
09/22/2022 05:41 PM 77.0°F 76.8°F / 77.5°F 59.7°F / 78.1°F 29.71 inHg 43% 0.00″
09/22/2022 05:10 PM 77.4°F 77.4°F / 77.5°F 59.7°F / 78.1°F 29.71 inHg 42% 0.00″
09/22/2022 04:40 PM 77.4°F 77.4°F / 78.1°F 59.7°F / 78.1°F 29.72 inHg 43% 0.00″
09/22/2022 04:10 PM 77.9°F 77.9°F / 78.1°F 59.7°F / 78.1°F 29.72 inHg 44% 0.00″
09/22/2022 03:40 PM 77.4°F 77.0°F / 77.5°F 59.7°F / 77.5°F 29.73 inHg 46% 0.00″
09/22/2022 03:10 PM 77.2°F 77.0°F / 77.2°F 59.7°F / 77.2°F 29.74 inHg 45% 0.00″
09/22/2022 02:40 PM 76.5°F 76.1°F / 76.5°F 59.7°F / 76.5°F 29.75 inHg 44% 0.00″
09/22/2022 02:10 PM 76.3°F 76.1°F / 76.3°F 59.7°F / 76.3°F 29.76 inHg 48% 0.00″
09/22/2022 01:40 PM 75.9°F 74.8°F / 75.9°F 59.7°F / 75.9°F 29.78 inHg 51% 0.00″
09/22/2022 01:10 PM 74.8°F 74.8°F / 74.8°F 59.7°F / 74.8°F 29.80 inHg 50% 0.00″
09/22/2022 12:39 PM 74.5°F 73.9°F / 74.5°F 59.7°F / 74.7°F 29.81 inHg 52% 0.00″
09/22/2022 12:08 PM 73.9°F 73.9°F / 74.5°F 59.7°F / 74.7°F 29.82 inHg 51% 0.00″
09/22/2022 11:38 AM 73.8°F 71.4°F / 73.8°F 59.7°F / 73.8°F 29.83 inHg 52% 0.00″
09/22/2022 11:08 AM 71.4°F 71.4°F / 71.4°F 59.7°F / 71.4°F 29.83 inHg 55% 0.00″
09/22/2022 10:38 AM 71.1°F 66.6°F / 71.1°F 59.7°F / 71.1°F 29.84 inHg 59% 0.00″
09/22/2022 10:08 AM 67.6°F 66.6°F / 67.6°F 59.7°F / 67.6°F 29.83 inHg 63% 0.00″
09/22/2022 09:38 AM 64.6°F 64.2°F / 65.3°F 59.7°F / 65.3°F 29.84 inHg 72% 0.00″
09/22/2022 09:08 AM 65.1°F 64.9°F / 65.1°F 59.7°F / 65.1°F 29.83 inHg 67% 0.00″
09/22/2022 08:38 AM 63.1°F 61.5°F / 63.1°F 59.7°F / 63.1°F 29.84 inHg 67% 0.00″
09/22/2022 08:08 AM 61.9°F 61.5°F / 61.9°F 59.7°F / 62.4°F 29.83 inHg 66% 0.00″
09/22/2022 07:38 AM 61.0°F 60.3°F / 61.2°F 59.7°F / 62.4°F 29.83 inHg 66% 0.00″
09/22/2022 07:08 AM 60.3°F 60.3°F / 60.3°F 59.7°F / 62.4°F 29.82 inHg 66% 0.00″
09/22/2022 06:38 AM 60.4°F 60.4°F / 61.0°F 59.7°F / 62.4°F 29.82 inHg 66% 0.00″
09/22/2022 06:08 AM 60.6°F 60.6°F / 61.0°F 59.7°F / 62.4°F 29.81 inHg 66% 0.00″
09/22/2022 05:38 AM 61.0°F 60.3°F / 61.2°F 59.7°F / 62.4°F 29.80 inHg 65% 0.00″
09/22/2022 05:08 AM 60.6°F 60.3°F / 60.6°F 59.7°F / 62.4°F 29.80 inHg 66% 0.00″
09/22/2022 04:38 AM 60.1°F 60.1°F / 61.3°F 60.1°F / 62.4°F 29.79 inHg 69% 0.00″
09/22/2022 04:08 AM 61.3°F 61.3°F / 61.3°F 60.1°F / 62.4°F 29.78 inHg 66% 0.00″
09/22/2022 03:38 AM 60.8°F 60.8°F / 61.3°F 60.1°F / 62.4°F 29.79 inHg 67% 0.00″
09/22/2022 03:08 AM 61.3°F 61.2°F / 61.3°F 60.1°F / 62.4°F 29.79 inHg 65% 0.00″
09/22/2022 02:38 AM 60.4°F 60.1°F / 60.6°F 60.1°F / 62.4°F 29.79 inHg 65% 0.00″
09/22/2022 02:07 AM 60.4°F 60.3°F / 60.6°F 60.3°F / 62.4°F 29.79 inHg 65% 0.00″
09/22/2022 01:37 AM 61.0°F 61.0°F / 61.3°F 61.0°F / 62.4°F 29.80 inHg 64% 0.00″
09/22/2022 01:07 AM 61.3°F 61.2°F / 61.3°F 61.0°F / 62.4°F 29.80 inHg 62% 0.00″
09/22/2022 12:37 AM 61.3°F 61.3°F / 62.4°F 61.3°F / 62.4°F 29.79 inHg 63% 0.00″
09/22/2022 12:07 AM 62.2°F 62.2°F / 62.4°F 62.2°F / 62.4°F 29.79 inHg 60% 0.00″
09/21/2022 11:37 PM 62.4°F 62.4°F / 62.8°F 58.5°F / 77.9°F 29.79 inHg 60% 0.00″
09/21/2022 11:06 PM 62.6°F 62.6°F / 62.8°F 58.5°F / 77.9°F 29.78 inHg 60% 0.00″
09/21/2022 10:36 PM 63.0°F 62.4°F / 63.0°F 58.5°F / 77.9°F 29.78 inHg 60% 0.00″
09/21/2022 10:06 PM 62.4°F 62.4°F / 62.4°F 58.5°F / 77.9°F 29.78 inHg 61% 0.00″
09/21/2022 09:34 PM 61.9°F 61.9°F / 63.5°F 58.5°F / 77.9°F 29.78 inHg 65% 0.00″
09/21/2022 09:04 PM 63.3°F 63.3°F / 63.5°F 58.5°F / 77.9°F 29.78 inHg 65% 0.00″
09/21/2022 07:57 PM 65.7°F 65.5°F / 72.7°F 58.5°F / 77.9°F 29.75 inHg 67% 0.00″
09/21/2022 07:27 PM 67.5°F 67.5°F / 72.7°F 58.5°F / 77.9°F 29.74 inHg 65% 0.00″
09/21/2022 06:57 PM 74.3°F 74.3°F / 76.6°F 58.5°F / 77.9°F 29.73 inHg 52% 0.00″
09/21/2022 06:25 PM 76.1°F 76.1°F / 76.6°F 58.5°F / 77.9°F 29.73 inHg 47% 0.00″
09/21/2022 05:55 PM 76.6°F 76.6°F / 77.5°F 58.5°F / 77.9°F 29.72 inHg 48% 0.00″
09/21/2022 05:25 PM 77.2°F 77.2°F / 77.5°F 58.5°F / 77.9°F 29.72 inHg 48% 0.00″
09/21/2022 04:55 PM 77.4°F 77.4°F / 77.9°F 58.5°F / 77.9°F 29.73 inHg 46% 0.00″
09/21/2022 04:25 PM 77.9°F 77.7°F / 77.9°F 58.5°F / 77.9°F 29.73 inHg 45% 0.00″
09/21/2022 03:55 PM 77.5°F 76.8°F / 77.5°F 58.5°F / 77.5°F 29.74 inHg 49% 0.00″
09/21/2022 12:37 PM 74.5°F 71.8°F / 74.5°F 58.5°F / 74.5°F 29.80 inHg 59% 0.00″
09/21/2022 12:07 PM 72.3°F 71.8°F / 72.3°F 58.5°F / 73.0°F 29.81 inHg 64% 0.00″
09/21/2022 11:36 AM 70.9°F 70.9°F / 72.9°F 58.5°F / 73.0°F 29.81 inHg 62% 0.00″
09/21/2022 11:06 AM 72.3°F 72.3°F / 72.9°F 58.5°F / 73.0°F 29.82 inHg 59% 0.00″
09/21/2022 10:36 AM 72.1°F 68.5°F / 72.1°F 58.5°F / 72.1°F 29.82 inHg 57% 0.00″
09/21/2022 09:36 AM 63.9°F 60.6°F / 63.9°F 58.5°F / 63.9°F 29.82 inHg 75% 0.00″
09/21/2022 09:06 AM 61.0°F 60.6°F / 61.0°F 58.5°F / 62.6°F 29.82 inHg 81% 0.00″
09/21/2022 08:36 AM 59.4°F 58.5°F / 59.4°F 58.5°F / 62.6°F 29.82 inHg 81% 0.00″
09/21/2022 08:06 AM 58.5°F 58.5°F / 58.6°F 58.5°F / 62.6°F 29.82 inHg 80% 0.00″
09/21/2022 07:36 AM 59.2°F 59.2°F / 59.5°F 58.6°F / 62.6°F 29.81 inHg 80% 0.00″
09/21/2022 06:36 AM 58.8°F 58.6°F / 59.2°F 58.6°F / 62.6°F 29.80 inHg 83% 0.00″
09/21/2022 05:35 AM 59.5°F 59.5°F / 60.1°F 59.5°F / 62.6°F 29.79 inHg 84% 0.00″
09/21/2022 05:05 AM 59.7°F 59.7°F / 60.1°F 59.7°F / 62.6°F 29.78 inHg 84% 0.00″
09/21/2022 04:35 AM 60.3°F 60.3°F / 60.4°F 60.3°F / 62.6°F 29.77 inHg 85% 0.00″
09/21/2022 04:04 AM 60.4°F 60.4°F / 60.4°F 60.4°F / 62.6°F 29.77 inHg 84% 0.00″
09/21/2022 03:34 AM 60.6°F 60.6°F / 61.2°F 60.6°F / 62.6°F 29.77 inHg 83% 0.00″
09/21/2022 03:04 AM 61.2°F 61.2°F / 61.2°F 61.2°F / 62.6°F 29.77 inHg 82% 0.00″
09/21/2022 02:34 AM 61.3°F 61.3°F / 62.2°F 61.3°F / 62.6°F 29.77 inHg 81% 0.00″
09/21/2022 02:04 AM 62.1°F 62.1°F / 62.2°F 61.9°F / 62.6°F 29.77 inHg 80% 0.00″
09/21/2022 01:34 AM 62.1°F 61.9°F / 62.2°F 61.9°F / 62.6°F 29.77 inHg 80% 0.00″
09/21/2022 01:04 AM 62.2°F 62.2°F / 62.2°F 62.2°F / 62.6°F 29.78 inHg 80% 0.00″
09/21/2022 12:34 AM 62.2°F 62.2°F / 62.6°F 62.2°F / 62.6°F 29.78 inHg 80% 0.00″
09/21/2022 12:04 AM 62.6°F 62.4°F / 62.6°F 62.4°F / 62.6°F 29.79 inHg 79% 0.00″
09/20/2022 11:33 PM 63.1°F 63.1°F / 63.9°F 57.4°F / 78.1°F 29.79 inHg 78% 0.01″
09/20/2022 11:03 PM 63.7°F 63.7°F / 63.9°F 57.4°F / 78.1°F 29.80 inHg 76% 0.01″
09/20/2022 10:33 PM 63.7°F 63.5°F / 63.9°F 57.4°F / 78.1°F 29.80 inHg 76% 0.01″
09/20/2022 10:03 PM 63.7°F 63.5°F / 63.7°F 57.4°F / 78.1°F 29.80 inHg 75% 0.01″
09/20/2022 09:33 PM 63.9°F 63.7°F / 64.0°F 57.4°F / 78.1°F 29.80 inHg 76% 0.01″
09/20/2022 09:01 PM 63.9°F 63.9°F / 63.9°F 57.4°F / 78.1°F 29.79 inHg 77% 0.01″
09/20/2022 08:31 PM 63.5°F 63.3°F / 63.7°F 57.4°F / 78.1°F 29.78 inHg 79% 0.01″
09/20/2022 08:01 PM 63.7°F 63.7°F / 63.7°F 57.4°F / 78.1°F 29.78 inHg 76% 0.01″
09/20/2022 07:31 PM 64.6°F 64.6°F / 66.4°F 57.4°F / 78.1°F 29.78 inHg 76% 0.01″
09/20/2022 06:30 PM 66.6°F 65.8°F / 66.6°F 57.4°F / 78.1°F 29.76 inHg 77% 0.01″
09/20/2022 05:30 PM 67.5°F 67.5°F / 68.7°F 57.4°F / 78.1°F 29.76 inHg 71% 0.01″
09/20/2022 05:00 PM 68.7°F 68.7°F / 68.7°F 57.4°F / 78.1°F 29.75 inHg 69% 0.01″
09/20/2022 04:30 PM 77.4°F 77.4°F / 78.1°F 57.4°F / 78.1°F 29.75 inHg 56% 0.00″
09/20/2022 03:30 PM 77.5°F 76.5°F / 77.5°F 57.4°F / 77.5°F 29.75 inHg 62% 0.00″
09/20/2022 02:28 PM 75.7°F 74.8°F / 75.7°F 57.4°F / 75.7°F 29.78 inHg 65% 0.00″
09/20/2022 12:58 PM 73.4°F 72.3°F / 73.4°F 57.4°F / 73.4°F 29.81 inHg 68% 0.00″
09/20/2022 12:28 PM 72.7°F 72.7°F / 73.2°F 57.4°F / 73.2°F 29.82 inHg 67% 0.00″
09/20/2022 11:57 AM 73.0°F 70.3°F / 73.2°F 57.4°F / 73.2°F 29.83 inHg 65% 0.00″
09/20/2022 11:27 AM 72.0°F 70.3°F / 72.0°F 57.4°F / 72.0°F 29.84 inHg 71% 0.00″
09/20/2022 10:57 AM 70.2°F 65.8°F / 70.2°F 57.4°F / 70.2°F 29.85 inHg 72% 0.00″
09/20/2022 10:27 AM 68.2°F 65.8°F / 68.2°F 57.4°F / 68.2°F 29.85 inHg 78% 0.00″
09/20/2022 08:27 AM 58.5°F 57.7°F / 58.5°F 57.4°F / 60.1°F 29.85 inHg 93% 0.00″
09/20/2022 07:57 AM 57.7°F 57.4°F / 57.7°F 57.4°F / 60.1°F 29.86 inHg 92% 0.00″
09/20/2022 07:26 AM 57.4°F 57.4°F / 57.6°F 57.4°F / 60.1°F 29.85 inHg 92% 0.00″
09/20/2022 06:56 AM 57.6°F 57.6°F / 57.7°F 57.4°F / 60.1°F 29.84 inHg 91% 0.00″
09/20/2022 06:25 AM 57.7°F 57.6°F / 57.7°F 57.4°F / 60.1°F 29.83 inHg 90% 0.00″
09/20/2022 05:52 AM 57.9°F 57.9°F / 59.0°F 57.4°F / 60.1°F 29.83 inHg 88% 0.00″
09/20/2022 05:22 AM 58.8°F 58.8°F / 59.0°F 57.4°F / 60.1°F 29.82 inHg 87% 0.00″
09/20/2022 04:52 AM 59.2°F 58.5°F / 59.4°F 57.4°F / 60.1°F 29.82 inHg 88% 0.00″
09/20/2022 04:22 AM 59.2°F 58.5°F / 59.2°F 57.4°F / 60.1°F 29.82 inHg 90% 0.00″
09/20/2022 03:52 AM 58.3°F 57.7°F / 58.5°F 57.4°F / 60.1°F 29.83 inHg 91% 0.00″
09/20/2022 03:22 AM 58.5°F 57.7°F / 58.5°F 57.4°F / 60.1°F 29.83 inHg 91% 0.00″
09/20/2022 02:52 AM 57.6°F 57.4°F / 58.5°F 57.4°F / 60.1°F 29.85 inHg 90% 0.00″
09/20/2022 02:21 AM 57.6°F 57.6°F / 58.5°F 57.6°F / 60.1°F 29.85 inHg 88% 0.00″
09/20/2022 01:51 AM 58.8°F 58.8°F / 60.1°F 58.8°F / 60.1°F 29.84 inHg 86% 0.00″
09/20/2022 01:21 AM 59.9°F 59.9°F / 60.1°F 59.7°F / 60.1°F 29.84 inHg 85% 0.00″
09/20/2022 12:51 AM 60.1°F 59.7°F / 60.1°F 59.7°F / 60.1°F 29.84 inHg 85% 0.00″
09/20/2022 12:21 AM 59.9°F 59.7°F / 60.1°F 59.7°F / 60.1°F 29.84 inHg 86% 0.00″
09/19/2022 11:51 PM 59.4°F 58.3°F / 59.4°F 55.0°F / 72.7°F 29.84 inHg 86% 0.68″
09/19/2022 11:21 PM 58.5°F 58.3°F / 58.5°F 55.0°F / 72.7°F 29.84 inHg 87% 0.68″
09/19/2022 10:51 PM 58.3°F 58.1°F / 58.8°F 55.0°F / 72.7°F 29.85 inHg 87% 0.68″
09/19/2022 10:21 PM 58.8°F 58.1°F / 58.8°F 55.0°F / 72.7°F 29.84 inHg 87% 0.68″
09/19/2022 09:50 PM 57.9°F 57.9°F / 58.8°F 55.0°F / 72.7°F 29.84 inHg 88% 0.68″
09/19/2022 09:20 PM 58.6°F 58.6°F / 58.8°F 55.0°F / 72.7°F 29.83 inHg 87% 0.68″
09/19/2022 08:49 PM 58.5°F 57.7°F / 58.5°F 55.0°F / 72.7°F 29.83 inHg 88% 0.68″
09/19/2022 08:19 PM 57.9°F 57.7°F / 57.9°F 55.0°F / 72.7°F 29.81 inHg 90% 0.68″
09/19/2022 07:49 PM 57.7°F 57.7°F / 59.0°F 55.0°F / 72.7°F 29.80 inHg 90% 0.68″
09/19/2022 07:19 PM 58.5°F 58.5°F / 59.0°F 55.0°F / 72.7°F 29.79 inHg 90% 0.68″
09/19/2022 06:49 PM 59.5°F 59.5°F / 62.1°F 55.0°F / 72.7°F 29.78 inHg 90% 0.68″
09/19/2022 06:19 PM 60.4°F 60.4°F / 62.1°F 55.0°F / 72.7°F 29.79 inHg 89% 0.68″
09/19/2022 05:49 PM 63.9°F 63.9°F / 71.1°F 55.0°F / 72.7°F 29.79 inHg 87% 0.38″
09/19/2022 05:19 PM 67.8°F 67.8°F / 71.1°F 55.0°F / 72.7°F 29.76 inHg 77% 0.28″
09/19/2022 04:49 PM 70.9°F 70.9°F / 71.8°F 55.0°F / 72.7°F 29.76 inHg 66% 0.00″
09/19/2022 04:19 PM 71.4°F 71.4°F / 71.8°F 55.0°F / 72.7°F 29.76 inHg 65% 0.00″
09/19/2022 03:49 PM 72.1°F 70.3°F / 72.7°F 55.0°F / 72.7°F 29.75 inHg 64% 0.00″
09/19/2022 03:19 PM 72.1°F 70.3°F / 72.1°F 55.0°F / 72.3°F 29.75 inHg 70% 0.00″
09/19/2022 02:49 PM 70.5°F 69.6°F / 70.5°F 55.0°F / 72.3°F 29.77 inHg 70% 0.00″
09/19/2022 02:19 PM 69.6°F 69.6°F / 70.3°F 55.0°F / 72.3°F 29.77 inHg 71% 0.00″
09/19/2022 01:48 PM 71.1°F 71.1°F / 72.0°F 55.0°F / 72.3°F 29.78 inHg 68% 0.00″
09/19/2022 12:48 PM 72.1°F 68.7°F / 72.3°F 55.0°F / 72.3°F 29.80 inHg 68% 0.00″
09/19/2022 12:18 PM 70.2°F 68.7°F / 70.2°F 55.0°F / 70.2°F 29.81 inHg 68% 0.00″
09/19/2022 11:48 AM 68.4°F 66.9°F / 68.4°F 55.0°F / 68.4°F 29.82 inHg 71% 0.00″
09/19/2022 11:18 AM 67.6°F 66.9°F / 67.6°F 55.0°F / 67.6°F 29.82 inHg 71% 0.00″
09/19/2022 10:48 AM 66.4°F 61.9°F / 66.4°F 55.0°F / 66.4°F 29.82 inHg 76% 0.00″
09/19/2022 10:18 AM 63.3°F 61.9°F / 63.3°F 55.0°F / 63.3°F 29.81 inHg 86% 0.00″
09/19/2022 09:48 AM 60.8°F 56.8°F / 60.8°F 55.0°F / 60.8°F 29.81 inHg 88% 0.00″
09/19/2022 09:18 AM 57.6°F 56.8°F / 57.6°F 55.0°F / 57.7°F 29.80 inHg 92% 0.00″
09/19/2022 08:48 AM 56.3°F 55.2°F / 56.3°F 55.0°F / 57.7°F 29.79 inHg 91% 0.00″
09/19/2022 08:18 AM 55.4°F 55.2°F / 55.4°F 55.0°F / 57.7°F 29.79 inHg 91% 0.00″
09/19/2022 07:48 AM 55.0°F 55.0°F / 55.4°F 55.0°F / 57.7°F 29.78 inHg 91% 0.00″
09/19/2022 07:18 AM 55.2°F 55.2°F / 55.4°F 55.2°F / 57.7°F 29.77 inHg 91% 0.00″
09/19/2022 06:48 AM 55.4°F 55.2°F / 55.6°F 55.2°F / 57.7°F 29.76 inHg 92% 0.00″
09/19/2022 06:18 AM 55.6°F 55.6°F / 55.6°F 55.2°F / 57.7°F 29.75 inHg 92% 0.00″
09/19/2022 05:47 AM 55.6°F 55.2°F / 55.8°F 55.2°F / 57.7°F 29.75 inHg 92% 0.00″
09/19/2022 05:17 AM 55.4°F 55.2°F / 55.4°F 55.2°F / 57.7°F 29.75 inHg 92% 0.00″
09/19/2022 04:46 AM 55.6°F 55.6°F / 56.1°F 55.6°F / 57.7°F 29.76 inHg 92% 0.00″
09/19/2022 04:16 AM 56.1°F 55.9°F / 56.1°F 55.9°F / 57.7°F 29.77 inHg 92% 0.00″
09/19/2022 03:46 AM 56.7°F 56.7°F / 57.0°F 56.7°F / 57.7°F 29.77 inHg 91% 0.00″
09/19/2022 03:16 AM 57.0°F 56.8°F / 57.0°F 56.7°F / 57.7°F 29.78 inHg 91% 0.00″
09/19/2022 02:46 AM 57.0°F 56.7°F / 57.0°F 56.7°F / 57.7°F 29.75 inHg 91% 0.00″
09/19/2022 02:16 AM 56.8°F 56.8°F / 57.0°F 56.8°F / 57.7°F 29.74 inHg 91% 0.00″
09/19/2022 01:46 AM 57.4°F 57.4°F / 57.7°F 57.4°F / 57.7°F 29.73 inHg 92% 0.00″
09/19/2022 01:16 AM 57.6°F 57.6°F / 57.7°F 57.4°F / 57.7°F 29.74 inHg 93% 0.00″
09/19/2022 12:45 AM 57.6°F 57.4°F / 57.7°F 57.4°F / 57.7°F 29.75 inHg 93% 0.00″
09/19/2022 12:15 AM 57.6°F 57.4°F / 57.6°F 57.4°F / 57.6°F 29.75 inHg 93% 0.00″
09/18/2022 11:45 PM 57.0°F 55.9°F / 57.0°F 55.0°F / 76.8°F 29.75 inHg 93% 0.54″
09/18/2022 11:15 PM 56.5°F 55.9°F / 56.5°F 55.0°F / 76.8°F 29.75 inHg 92% 0.54″
09/18/2022 10:45 PM 55.6°F 55.0°F / 55.6°F 55.0°F / 76.8°F 29.76 inHg 91% 0.53″
09/18/2022 10:15 PM 55.2°F 55.0°F / 55.2°F 55.0°F / 76.8°F 29.75 inHg 91% 0.52″
09/18/2022 09:45 PM 55.2°F 55.2°F / 56.1°F 55.2°F / 76.8°F 29.78 inHg 90% 0.50″
09/18/2022 09:15 PM 55.8°F 55.8°F / 56.1°F 55.8°F / 76.8°F 29.76 inHg 90% 0.45″
09/18/2022 08:45 PM 56.7°F 56.7°F / 58.8°F 56.7°F / 76.8°F 29.77 inHg 89% 0.36″
09/18/2022 08:15 PM 57.9°F 57.9°F / 58.8°F 57.9°F / 76.8°F 29.75 inHg 87% 0.29″
09/18/2022 07:44 PM 59.9°F 59.9°F / 63.9°F 59.5°F / 76.8°F 29.73 inHg 86% 0.18″
09/18/2022 07:14 PM 62.1°F 62.1°F / 63.9°F 59.5°F / 76.8°F 29.70 inHg 82% 0.13″
09/18/2022 06:44 PM 65.1°F 65.1°F / 70.2°F 59.5°F / 76.8°F 29.68 inHg 79% 0.05″
09/18/2022 06:14 PM 68.5°F 68.5°F / 70.2°F 59.5°F / 76.8°F 29.64 inHg 70% 0.01″
09/18/2022 05:44 PM 70.9°F 70.9°F / 73.6°F 59.5°F / 76.8°F 29.63 inHg 61% 0.00″
09/18/2022 05:14 PM 73.0°F 73.0°F / 73.6°F 59.5°F / 76.8°F 29.62 inHg 55% 0.00″
09/18/2022 04:44 PM 74.5°F 74.5°F / 75.9°F 59.5°F / 76.8°F 29.61 inHg 49% 0.00″
09/18/2022 04:13 PM 75.6°F 75.6°F / 75.9°F 59.5°F / 76.8°F 29.61 inHg 48% 0.00″
09/18/2022 03:43 PM 74.7°F 73.9°F / 74.7°F 59.5°F / 76.8°F 29.63 inHg 53% 0.00″
09/18/2022 03:13 PM 74.1°F 74.1°F / 74.3°F 59.5°F / 76.8°F 29.63 inHg 53% 0.00″
09/18/2022 02:43 PM 72.9°F 71.8°F / 72.9°F 59.5°F / 76.8°F 29.65 inHg 55% 0.00″
09/18/2022 02:13 PM 72.1°F 72.1°F / 72.7°F 59.5°F / 76.8°F 29.67 inHg 53% 0.00″
09/18/2022 01:43 PM 74.7°F 74.7°F / 76.8°F 59.5°F / 76.8°F 29.69 inHg 48% 0.00″
09/18/2022 01:13 PM 76.5°F 76.5°F / 76.5°F 59.5°F / 76.5°F 29.68 inHg 52% 0.00″
09/18/2022 12:43 PM 76.1°F 74.8°F / 76.3°F 59.5°F / 76.3°F 29.69 inHg 49% 0.00″
09/18/2022 12:12 PM 75.7°F 74.8°F / 75.7°F 59.5°F / 75.7°F 29.71 inHg 49% 0.00″
09/18/2022 11:42 AM 74.5°F 73.0°F / 74.5°F 59.5°F / 74.5°F 29.71 inHg 50% 0.00″
09/18/2022 11:12 AM 73.4°F 73.0°F / 73.4°F 59.5°F / 73.4°F 29.72 inHg 52% 0.00″
09/18/2022 10:42 AM 72.3°F 71.1°F / 72.7°F 59.5°F / 72.7°F 29.72 inHg 47% 0.00″
09/18/2022 10:12 AM 72.1°F 71.1°F / 72.1°F 59.5°F / 72.1°F 29.72 inHg 46% 0.00″
09/18/2022 09:42 AM 69.1°F 63.3°F / 69.1°F 59.5°F / 69.1°F 29.71 inHg 58% 0.00″
09/18/2022 09:12 AM 64.8°F 63.3°F / 64.8°F 59.5°F / 66.0°F 29.70 inHg 66% 0.00″
09/18/2022 08:42 AM 62.1°F 60.3°F / 62.1°F 59.5°F / 66.0°F 29.71 inHg 65% 0.00″
09/18/2022 08:12 AM 60.4°F 60.3°F / 60.4°F 59.5°F / 66.0°F 29.70 inHg 60% 0.00″
09/18/2022 07:42 AM 59.7°F 59.5°F / 60.1°F 59.5°F / 66.0°F 29.70 inHg 57% 0.00″
09/18/2022 07:12 AM 59.9°F 59.9°F / 60.1°F 59.9°F / 66.0°F 29.68 inHg 56% 0.00″
09/18/2022 06:42 AM 60.1°F 60.1°F / 61.2°F 60.1°F / 66.0°F 29.67 inHg 55% 0.00″
09/18/2022 06:12 AM 60.8°F 60.8°F / 61.2°F 60.8°F / 66.0°F 29.66 inHg 55% 0.00″
09/18/2022 05:42 AM 61.9°F 61.9°F / 62.2°F 61.5°F / 66.0°F 29.65 inHg 53% 0.00″
09/18/2022 05:12 AM 62.2°F 61.9°F / 62.2°F 61.5°F / 66.0°F 29.64 inHg 54% 0.00″
09/18/2022 04:42 AM 61.5°F 61.5°F / 62.1°F 61.5°F / 66.0°F 29.63 inHg 54% 0.00″
09/18/2022 04:12 AM 61.9°F 61.9°F / 62.1°F 61.9°F / 66.0°F 29.63 inHg 54% 0.00″
09/18/2022 03:42 AM 62.1°F 62.1°F / 62.8°F 62.1°F / 66.0°F 29.62 inHg 51% 0.00″
09/18/2022 03:12 AM 62.6°F 62.6°F / 62.8°F 62.6°F / 66.0°F 29.63 inHg 52% 0.00″
09/18/2022 02:42 AM 63.0°F 62.8°F / 64.0°F 62.8°F / 66.0°F 29.63 inHg 50% 0.00″
09/18/2022 02:12 AM 63.7°F 63.7°F / 64.0°F 63.7°F / 66.0°F 29.63 inHg 49% 0.00″
09/18/2022 01:42 AM 64.9°F 64.9°F / 64.9°F 64.9°F / 66.0°F 29.63 inHg 48% 0.00″
09/18/2022 01:11 AM 64.9°F 64.9°F / 64.9°F 64.9°F / 66.0°F 29.64 inHg 47% 0.00″
09/18/2022 12:41 AM 65.1°F 65.1°F / 66.0°F 65.1°F / 66.0°F 29.65 inHg 48% 0.00″
09/18/2022 12:11 AM 65.8°F 65.8°F / 66.0°F 65.8°F / 66.0°F 29.64 inHg 46% 0.00″
09/17/2022 11:41 PM 66.6°F 66.6°F / 67.3°F 59.5°F / 80.4°F 29.65 inHg 46% 0.00″
09/17/2022 11:11 PM 67.3°F 67.1°F / 67.3°F 59.5°F / 80.4°F 29.65 inHg 45% 0.00″
09/17/2022 10:41 PM 67.3°F 67.3°F / 67.6°F 59.5°F / 80.4°F 29.65 inHg 47% 0.00″
09/17/2022 10:11 PM 67.6°F 67.6°F / 67.6°F 59.5°F / 80.4°F 29.65 inHg 47% 0.00″
09/17/2022 09:41 PM 67.8°F 67.5°F / 67.8°F 59.5°F / 80.4°F 29.65 inHg 46% 0.00″
09/17/2022 09:11 PM 67.6°F 67.5°F / 67.6°F 59.5°F / 80.4°F 29.64 inHg 47% 0.00″
09/17/2022 08:41 PM 67.3°F 67.3°F / 67.8°F 59.5°F / 80.4°F 29.63 inHg 49% 0.00″
09/17/2022 08:10 PM 67.5°F 67.5°F / 67.8°F 59.5°F / 80.4°F 29.62 inHg 50% 0.00″
09/17/2022 07:40 PM 68.5°F 68.5°F / 75.4°F 59.5°F / 80.4°F 29.61 inHg 50% 0.00″
09/17/2022 07:10 PM 72.7°F 72.7°F / 75.4°F 59.5°F / 80.4°F 29.60 inHg 46% 0.00″
09/17/2022 05:02 PM 79.5°F 79.5°F / 79.5°F 59.5°F / 80.4°F 29.60 inHg 35% 0.00″
09/17/2022 04:32 PM 79.3°F 79.3°F / 80.4°F 59.5°F / 80.4°F 29.61 inHg 37% 0.00″
09/17/2022 04:02 PM 80.2°F 80.2°F / 80.4°F 59.5°F / 80.4°F 29.61 inHg 35% 0.00″
09/17/2022 03:32 PM 79.9°F 79.0°F / 79.9°F 59.5°F / 79.9°F 29.62 inHg 36% 0.00″
09/17/2022 03:01 PM 79.0°F 79.0°F / 79.0°F 59.5°F / 79.0°F 29.63 inHg 39% 0.00″
09/17/2022 02:31 PM 78.1°F 76.8°F / 78.1°F 59.5°F / 78.1°F 29.65 inHg 37% 0.00″
09/17/2022 02:01 PM 76.8°F 76.8°F / 76.8°F 59.5°F / 76.8°F 29.66 inHg 41% 0.00″
09/17/2022 01:31 PM 76.5°F 76.5°F / 76.6°F 59.5°F / 76.8°F 29.67 inHg 41% 0.00″
09/17/2022 10:54 AM 73.8°F 70.5°F / 73.8°F 59.5°F / 73.8°F 29.71 inHg 45% 0.00″
09/17/2022 10:24 AM 72.5°F 70.5°F / 72.5°F 59.5°F / 72.5°F 29.71 inHg 48% 0.00″
09/17/2022 09:54 AM 70.0°F 65.5°F / 70.0°F 59.5°F / 70.0°F 29.71 inHg 52% 0.00″
09/17/2022 09:24 AM 66.9°F 65.5°F / 66.9°F 59.5°F / 66.9°F 29.71 inHg 54% 0.00″
09/17/2022 08:54 AM 64.9°F 62.1°F / 64.9°F 59.5°F / 65.7°F 29.71 inHg 57% 0.00″
09/17/2022 08:23 AM 62.8°F 62.1°F / 62.8°F 59.5°F / 65.7°F 29.71 inHg 60% 0.00″
09/17/2022 07:53 AM 62.8°F 62.8°F / 63.9°F 59.5°F / 65.7°F 29.71 inHg 60% 0.00″
09/17/2022 07:23 AM 63.9°F 63.7°F / 63.9°F 59.5°F / 65.7°F 29.70 inHg 56% 0.00″
09/17/2022 06:52 AM 63.9°F 63.9°F / 64.4°F 59.5°F / 65.7°F 29.69 inHg 55% 0.00″
09/17/2022 06:22 AM 64.0°F 64.0°F / 64.4°F 59.5°F / 65.7°F 29.68 inHg 55% 0.00″
09/17/2022 05:52 AM 64.2°F 64.2°F / 65.1°F 59.5°F / 65.7°F 29.69 inHg 54% 0.00″
09/17/2022 05:22 AM 65.1°F 64.9°F / 65.1°F 59.5°F / 65.7°F 29.69 inHg 53% 0.00″
09/17/2022 04:52 AM 65.1°F 65.1°F / 65.7°F 59.5°F / 65.7°F 29.68 inHg 51% 0.00″
09/17/2022 04:22 AM 65.7°F 65.5°F / 65.7°F 59.5°F / 65.7°F 29.68 inHg 51% 0.00″
09/17/2022 03:51 AM 65.5°F 63.3°F / 65.5°F 59.5°F / 65.5°F 29.68 inHg 51% 0.00″
09/17/2022 03:21 AM 64.4°F 63.3°F / 64.4°F 59.5°F / 64.4°F 29.68 inHg 53% 0.00″
09/17/2022 02:51 AM 63.0°F 60.6°F / 63.0°F 59.5°F / 63.0°F 29.69 inHg 56% 0.00″
09/17/2022 02:21 AM 62.1°F 60.6°F / 62.1°F 59.5°F / 62.1°F 29.70 inHg 54% 0.00″
09/17/2022 01:51 AM 60.4°F 59.5°F / 60.4°F 59.5°F / 60.4°F 29.70 inHg 56% 0.00″
09/17/2022 01:21 AM 59.9°F 59.5°F / 59.9°F 59.5°F / 60.3°F 29.70 inHg 59% 0.00″
09/17/2022 12:51 AM 59.7°F 59.7°F / 60.3°F 59.7°F / 60.3°F 29.71 inHg 62% 0.00″
09/17/2022 12:20 AM 59.7°F 59.7°F / 60.1°F 59.7°F / 60.1°F 29.71 inHg 63% 0.00″
09/16/2022 11:50 PM 60.3°F 60.3°F / 62.6°F 54.1°F / 78.1°F 29.71 inHg 62% 0.00″
09/16/2022 11:20 PM 61.9°F 61.9°F / 62.6°F 54.1°F / 78.1°F 29.71 inHg 60% 0.00″
09/16/2022 10:08 PM 63.9°F 63.9°F / 63.9°F 54.1°F / 78.1°F 29.72 inHg 58% 0.00″
09/16/2022 09:38 PM 63.7°F 63.3°F / 63.7°F 54.1°F / 78.1°F 29.72 inHg 59% 0.00″
09/16/2022 09:08 PM 63.5°F 63.3°F / 63.7°F 54.1°F / 78.1°F 29.72 inHg 61% 0.00″
09/16/2022 08:38 PM 64.2°F 64.2°F / 65.7°F 54.1°F / 78.1°F 29.71 inHg 59% 0.00″
09/16/2022 08:07 PM 65.3°F 65.3°F / 65.7°F 54.1°F / 78.1°F 29.70 inHg 58% 0.00″
09/16/2022 07:37 PM 66.9°F 66.9°F / 72.0°F 54.1°F / 78.1°F 29.69 inHg 53% 0.00″
09/16/2022 07:07 PM 71.1°F 71.1°F / 72.0°F 54.1°F / 78.1°F 29.69 inHg 48% 0.00″
09/16/2022 06:37 PM 73.0°F 73.0°F / 75.6°F 54.1°F / 78.1°F 29.70 inHg 45% 0.00″
09/16/2022 06:07 PM 75.0°F 75.0°F / 75.6°F 54.1°F / 78.1°F 29.70 inHg 40% 0.00″
09/16/2022 05:36 PM 77.4°F 77.4°F / 78.1°F 54.1°F / 78.1°F 29.70 inHg 35% 0.00″
09/16/2022 05:06 PM 77.9°F 77.7°F / 77.9°F 54.1°F / 77.9°F 29.70 inHg 37% 0.00″
09/16/2022 04:34 PM 77.5°F 77.4°F / 77.5°F 54.1°F / 77.5°F 29.70 inHg 36% 0.00″
09/16/2022 04:04 PM 77.4°F 77.4°F / 77.5°F 54.1°F / 77.5°F 29.71 inHg 34% 0.00″
09/16/2022 03:34 PM 77.2°F 76.8°F / 77.4°F 54.1°F / 77.4°F 29.72 inHg 34% 0.00″
09/16/2022 03:04 PM 77.0°F 77.0°F / 77.2°F 54.1°F / 77.2°F 29.73 inHg 36% 0.00″
09/16/2022 02:34 PM 76.3°F 75.9°F / 76.3°F 54.1°F / 76.3°F 29.74 inHg 40% 0.00″
09/16/2022 02:04 PM 76.1°F 75.9°F / 76.1°F 54.1°F / 76.1°F 29.75 inHg 40% 0.00″
09/16/2022 01:34 PM 75.4°F 74.8°F / 75.6°F 54.1°F / 75.6°F 29.77 inHg 38% 0.00″
09/16/2022 01:04 PM 75.0°F 74.8°F / 75.0°F 54.1°F / 75.0°F 29.78 inHg 38% 0.00″
09/16/2022 12:34 PM 74.5°F 73.8°F / 74.7°F 54.1°F / 74.7°F 29.79 inHg 40% 0.00″
09/16/2022 12:04 PM 73.8°F 73.8°F / 73.8°F 54.1°F / 73.8°F 29.80 inHg 42% 0.00″
09/16/2022 11:34 AM 73.0°F 72.3°F / 73.0°F 54.1°F / 73.0°F 29.81 inHg 45% 0.00″
09/16/2022 11:04 AM 72.3°F 72.3°F / 72.3°F 54.1°F / 72.3°F 29.81 inHg 42% 0.00″
09/16/2022 10:34 AM 71.1°F 68.2°F / 71.1°F 54.1°F / 71.1°F 29.82 inHg 44% 0.00″
09/16/2022 10:04 AM 68.5°F 68.2°F / 68.5°F 54.1°F / 68.5°F 29.81 inHg 51% 0.00″
09/16/2022 09:34 AM 64.2°F 58.6°F / 64.2°F 54.1°F / 64.2°F 29.81 inHg 59% 0.00″
09/16/2022 09:04 AM 59.4°F 58.6°F / 59.4°F 54.1°F / 60.6°F 29.81 inHg 66% 0.00″
09/16/2022 08:33 AM 56.7°F 54.9°F / 56.7°F 54.1°F / 60.6°F 29.81 inHg 72% 0.00″
09/16/2022 08:03 AM 55.0°F 54.9°F / 55.0°F 54.1°F / 60.6°F 29.80 inHg 73% 0.00″
09/16/2022 07:33 AM 54.1°F 54.1°F / 54.1°F 54.1°F / 60.6°F 29.79 inHg 76% 0.00″
09/16/2022 07:03 AM 54.1°F 54.1°F / 54.1°F 54.1°F / 60.6°F 29.78 inHg 75% 0.00″
09/16/2022 06:33 AM 54.3°F 54.3°F / 55.0°F 54.3°F / 60.6°F 29.78 inHg 75% 0.00″
09/16/2022 06:03 AM 55.0°F 55.0°F / 55.0°F 54.7°F / 60.6°F 29.78 inHg 73% 0.00″
09/16/2022 05:32 AM 54.9°F 54.9°F / 55.0°F 54.9°F / 60.6°F 29.77 inHg 73% 0.00″
09/16/2022 05:02 AM 55.0°F 55.0°F / 55.0°F 55.0°F / 60.6°F 29.76 inHg 72% 0.00″
09/16/2022 04:32 AM 56.1°F 56.1°F / 57.9°F 56.1°F / 60.6°F 29.76 inHg 70% 0.00″
09/16/2022 04:02 AM 57.9°F 57.9°F / 57.9°F 57.9°F / 60.6°F 29.76 inHg 65% 0.00″
09/16/2022 03:32 AM 58.6°F 58.6°F / 59.2°F 58.6°F / 60.6°F 29.76 inHg 62% 0.00″
09/16/2022 03:01 AM 59.2°F 59.2°F / 59.2°F 59.2°F / 60.6°F 29.77 inHg 61% 0.00″
09/16/2022 02:31 AM 59.5°F 59.4°F / 59.7°F 59.4°F / 60.6°F 29.77 inHg 60% 0.00″
09/16/2022 02:01 AM 59.5°F 59.5°F / 59.7°F 59.5°F / 60.6°F 29.77 inHg 61% 0.00″
09/16/2022 01:31 AM 60.1°F 59.7°F / 60.3°F 59.7°F / 60.6°F 29.77 inHg 59% 0.00″
09/16/2022 01:01 AM 60.3°F 60.3°F / 60.3°F 60.3°F / 60.6°F 29.77 inHg 61% 0.00″
09/16/2022 12:31 AM 60.6°F 60.4°F / 60.6°F 60.4°F / 60.6°F 29.78 inHg 61% 0.00″
09/16/2022 12:01 AM 60.4°F 60.4°F / 60.4°F 60.4°F / 60.4°F 29.78 inHg 63% 0.00″
09/15/2022 11:31 PM 60.6°F 60.6°F / 61.3°F 55.0°F / 75.6°F 29.78 inHg 64% 0.00″
09/15/2022 11:01 PM 61.2°F 61.2°F / 61.2°F 55.0°F / 75.6°F 29.78 inHg 65% 0.00″
09/15/2022 10:31 PM 60.8°F 60.8°F / 61.7°F 55.0°F / 75.6°F 29.78 inHg 67% 0.00″
09/15/2022 09:22 PM 61.9°F 61.7°F / 61.9°F 55.0°F / 75.6°F 29.78 inHg 64% 0.00″
09/15/2022 08:52 PM 62.1°F 62.1°F / 63.1°F 55.0°F / 75.6°F 29.78 inHg 64% 0.00″
09/15/2022 08:22 PM 62.4°F 62.4°F / 63.1°F 55.0°F / 75.6°F 29.76 inHg 64% 0.00″
09/15/2022 07:52 PM 64.0°F 64.0°F / 72.0°F 55.0°F / 75.6°F 29.75 inHg 63% 0.00″
09/15/2022 07:19 PM 67.6°F 67.6°F / 72.0°F 55.0°F / 75.6°F 29.75 inHg 59% 0.00″
09/15/2022 06:49 PM 74.8°F 74.8°F / 75.6°F 55.0°F / 75.6°F 29.75 inHg 46% 0.00″
09/15/2022 04:50 PM 73.9°F 73.9°F / 75.0°F 55.0°F / 75.0°F 29.75 inHg 45% 0.00″
09/15/2022 04:20 PM 74.8°F 74.7°F / 74.8°F 55.0°F / 75.0°F 29.76 inHg 42% 0.00″
09/15/2022 03:50 PM 75.0°F 74.8°F / 75.0°F 55.0°F / 75.0°F 29.76 inHg 45% 0.00″
09/15/2022 03:20 PM 74.8°F 74.8°F / 74.8°F 55.0°F / 74.8°F 29.77 inHg 41% 0.00″
09/15/2022 02:50 PM 74.8°F 73.4°F / 74.8°F 55.0°F / 74.8°F 29.77 inHg 45% 0.00″
09/15/2022 02:20 PM 73.9°F 73.4°F / 73.9°F 55.0°F / 73.9°F 29.78 inHg 49% 0.00″
09/15/2022 01:50 PM 72.9°F 72.3°F / 73.2°F 55.0°F / 73.2°F 29.79 inHg 51% 0.00″
09/15/2022 01:20 PM 72.7°F 72.7°F / 73.2°F 55.0°F / 73.2°F 29.80 inHg 50% 0.00″
09/15/2022 12:49 PM 72.7°F 70.2°F / 72.7°F 55.0°F / 72.7°F 29.81 inHg 49% 0.00″
09/15/2022 12:19 PM 70.9°F 70.2°F / 70.9°F 55.0°F / 70.9°F 29.81 inHg 54% 0.00″
09/15/2022 11:49 AM 69.8°F 68.7°F / 69.8°F 55.0°F / 69.8°F 29.82 inHg 54% 0.00″
09/15/2022 11:19 AM 69.3°F 68.7°F / 69.3°F 55.0°F / 69.3°F 29.82 inHg 61% 0.00″
09/15/2022 10:49 AM 68.2°F 64.6°F / 68.2°F 55.0°F / 68.2°F 29.83 inHg 68% 0.00″
09/15/2022 10:19 AM 66.6°F 64.6°F / 66.6°F 55.0°F / 66.6°F 29.83 inHg 69% 0.00″
09/15/2022 09:49 AM 63.7°F 58.3°F / 63.7°F 55.0°F / 63.7°F 29.83 inHg 78% 0.00″
09/15/2022 09:19 AM 60.1°F 58.3°F / 60.1°F 55.0°F / 60.1°F 29.83 inHg 85% 0.00″
09/15/2022 08:49 AM 57.4°F 55.4°F / 57.4°F 55.0°F / 58.6°F 29.83 inHg 87% 0.00″
09/15/2022 08:19 AM 55.6°F 55.4°F / 55.6°F 55.0°F / 58.6°F 29.83 inHg 86% 0.00″
09/15/2022 07:47 AM 55.2°F 55.0°F / 55.6°F 55.0°F / 58.6°F 29.83 inHg 86% 0.00″
09/15/2022 07:17 AM 55.0°F 55.0°F / 55.6°F 55.0°F / 58.6°F 29.82 inHg 85% 0.00″
09/15/2022 06:47 AM 55.9°F 55.9°F / 56.1°F 55.6°F / 58.6°F 29.81 inHg 84% 0.00″
09/15/2022 06:16 AM 56.1°F 56.1°F / 56.1°F 55.6°F / 58.6°F 29.80 inHg 84% 0.00″
09/15/2022 05:46 AM 55.9°F 55.6°F / 55.9°F 55.6°F / 58.6°F 29.80 inHg 84% 0.00″
09/15/2022 05:16 AM 55.6°F 55.6°F / 55.8°F 55.6°F / 58.6°F 29.79 inHg 83% 0.00″
09/15/2022 04:45 AM 55.9°F 55.9°F / 56.1°F 55.9°F / 58.6°F 29.79 inHg 82% 0.00″
09/15/2022 04:15 AM 55.9°F 55.9°F / 55.9°F 55.9°F / 58.6°F 29.79 inHg 82% 0.00″
09/15/2022 03:45 AM 55.9°F 55.9°F / 56.8°F 55.9°F / 58.6°F 29.80 inHg 82% 0.00″
09/15/2022 03:15 AM 56.3°F 56.3°F / 56.8°F 56.3°F / 58.6°F 29.80 inHg 81% 0.00″
09/15/2022 02:45 AM 57.0°F 57.0°F / 57.9°F 57.0°F / 58.6°F 29.80 inHg 80% 0.00″
09/15/2022 02:15 AM 57.7°F 57.7°F / 57.9°F 57.7°F / 58.6°F 29.80 inHg 79% 0.00″
09/15/2022 01:45 AM 58.3°F 58.3°F / 58.5°F 58.3°F / 58.6°F 29.80 inHg 79% 0.00″
09/15/2022 01:15 AM 58.3°F 58.3°F / 58.5°F 58.3°F / 58.6°F 29.80 inHg 79% 0.00″
09/15/2022 12:44 AM 58.5°F 58.3°F / 58.6°F 58.3°F / 58.6°F 29.80 inHg 77% 0.00″
09/15/2022 12:14 AM 58.5°F 58.3°F / 58.5°F 58.3°F / 58.5°F 29.80 inHg 75% 0.00″
09/14/2022 11:44 PM 57.9°F 57.9°F / 58.3°F 48.9°F / 72.7°F 29.80 inHg 75% 0.16″
09/14/2022 11:14 PM 58.3°F 58.1°F / 58.3°F 48.9°F / 72.7°F 29.80 inHg 75% 0.16″
09/14/2022 10:44 PM 58.3°F 58.1°F / 58.5°F 48.9°F / 72.7°F 29.80 inHg 76% 0.16″
09/14/2022 10:14 PM 58.3°F 58.3°F / 58.5°F 48.9°F / 72.7°F 29.79 inHg 76% 0.16″
09/14/2022 09:43 PM 58.5°F 58.5°F / 59.4°F 48.9°F / 72.7°F 29.79 inHg 76% 0.16″
09/14/2022 09:13 PM 59.0°F 59.0°F / 59.4°F 48.9°F / 72.7°F 29.78 inHg 74% 0.16″
09/14/2022 08:43 PM 59.7°F 59.5°F / 60.8°F 48.9°F / 72.7°F 29.78 inHg 72% 0.16″
09/14/2022 08:13 PM 60.3°F 60.3°F / 60.8°F 48.9°F / 72.7°F 29.76 inHg 71% 0.16″
09/14/2022 07:42 PM 62.2°F 62.2°F / 68.7°F 48.9°F / 72.7°F 29.75 inHg 69% 0.16″
09/14/2022 07:12 PM 66.7°F 66.7°F / 68.7°F 48.9°F / 72.7°F 29.74 inHg 61% 0.16″
09/14/2022 06:42 PM 69.4°F 68.9°F / 69.4°F 48.9°F / 72.7°F 29.73 inHg 56% 0.16″
09/14/2022 06:12 PM 69.1°F 68.9°F / 69.3°F 48.9°F / 72.7°F 29.73 inHg 62% 0.16″
09/14/2022 05:42 PM 70.9°F 70.9°F / 72.7°F 48.9°F / 72.7°F 29.73 inHg 50% 0.16″
09/14/2022 05:12 PM 72.7°F 72.7°F / 72.7°F 48.9°F / 72.7°F 29.73 inHg 48% 0.16″
09/14/2022 03:50 PM 71.1°F 70.2°F / 71.1°F 48.9°F / 71.1°F 29.73 inHg 52% 0.16″
09/14/2022 03:20 PM 70.9°F 70.2°F / 71.1°F 48.9°F / 71.1°F 29.74 inHg 54% 0.16″
09/14/2022 01:41 PM 70.0°F 69.3°F / 70.0°F 48.9°F / 70.0°F 29.77 inHg 60% 0.16″
09/14/2022 01:11 PM 69.3°F 69.3°F / 69.4°F 48.9°F / 69.4°F 29.78 inHg 60% 0.16″
09/14/2022 12:41 PM 69.4°F 67.8°F / 69.4°F 48.9°F / 69.4°F 29.78 inHg 60% 0.16″
09/14/2022 12:11 PM 68.5°F 67.8°F / 68.5°F 48.9°F / 68.5°F 29.79 inHg 60% 0.16″
09/14/2022 11:41 AM 67.3°F 65.5°F / 67.3°F 48.9°F / 67.3°F 29.80 inHg 63% 0.16″
09/14/2022 11:11 AM 66.2°F 65.5°F / 66.2°F 48.9°F / 66.2°F 29.80 inHg 65% 0.16″
09/14/2022 10:41 AM 63.7°F 57.9°F / 63.7°F 48.9°F / 63.7°F 29.80 inHg 70% 0.16″
09/14/2022 10:11 AM 59.2°F 57.9°F / 59.2°F 48.9°F / 59.2°F 29.81 inHg 81% 0.16″
09/14/2022 09:41 AM 56.5°F 53.4°F / 56.5°F 48.9°F / 56.5°F 29.80 inHg 91% 0.16″
09/14/2022 09:11 AM 54.3°F 53.4°F / 54.3°F 48.9°F / 54.3°F 29.79 inHg 92% 0.16″
09/14/2022 08:41 AM 51.6°F 49.6°F / 51.6°F 48.9°F / 54.0°F 29.78 inHg 92% 0.16″
09/14/2022 08:10 AM 50.2°F 49.6°F / 50.2°F 48.9°F / 54.0°F 29.78 inHg 92% 0.16″
09/14/2022 07:40 AM 49.1°F 48.9°F / 49.1°F 48.9°F / 54.0°F 29.78 inHg 92% 0.16″
09/14/2022 07:10 AM 48.9°F 48.9°F / 48.9°F 48.9°F / 54.0°F 29.77 inHg 91% 0.16″
09/14/2022 06:40 AM 48.9°F 48.9°F / 49.6°F 48.9°F / 54.0°F 29.76 inHg 91% 0.16″
09/14/2022 06:10 AM 49.6°F 49.6°F / 49.6°F 49.6°F / 54.0°F 29.75 inHg 91% 0.16″
09/14/2022 05:40 AM 50.2°F 50.0°F / 51.1°F 50.0°F / 54.0°F 29.74 inHg 90% 0.16″
09/14/2022 05:10 AM 50.9°F 50.9°F / 51.1°F 50.9°F / 54.0°F 29.73 inHg 89% 0.16″
09/14/2022 04:40 AM 52.3°F 52.3°F / 52.9°F 51.3°F / 54.0°F 29.73 inHg 88% 0.16″
09/14/2022 04:10 AM 52.9°F 52.9°F / 52.9°F 51.3°F / 54.0°F 29.72 inHg 88% 0.16″
09/14/2022 03:39 AM 52.7°F 52.0°F / 52.7°F 51.3°F / 54.0°F 29.73 inHg 87% 0.16″
09/14/2022 03:09 AM 52.0°F 52.0°F / 52.2°F 51.3°F / 54.0°F 29.73 inHg 89% 0.16″
09/14/2022 02:39 AM 52.3°F 52.2°F / 52.5°F 51.3°F / 54.0°F 29.74 inHg 88% 0.16″
09/14/2022 02:09 AM 52.3°F 52.2°F / 52.3°F 51.3°F / 54.0°F 29.74 inHg 86% 0.16″
09/14/2022 01:38 AM 51.8°F 51.3°F / 51.8°F 51.3°F / 54.0°F 29.74 inHg 89% 0.16″
09/14/2022 01:08 AM 51.3°F 51.3°F / 51.4°F 51.3°F / 54.0°F 29.75 inHg 91% 0.16″
09/14/2022 12:38 AM 52.3°F 52.3°F / 54.0°F 52.3°F / 54.0°F 29.78 inHg 91% 0.15″
09/14/2022 12:08 AM 53.8°F 53.8°F / 54.0°F 53.8°F / 54.0°F 29.83 inHg 91% 0.04″
09/13/2022 11:38 PM 54.1°F 54.1°F / 54.5°F 54.1°F / 75.9°F 29.82 inHg 90% 0.49″
09/13/2022 11:08 PM 54.3°F 54.3°F / 54.5°F 54.3°F / 75.9°F 29.80 inHg 89% 0.35″
09/13/2022 10:38 PM 54.9°F 54.9°F / 57.7°F 54.3°F / 75.9°F 29.79 inHg 87% 0.22″
09/13/2022 10:08 PM 56.7°F 56.7°F / 57.7°F 54.3°F / 75.9°F 29.78 inHg 83% 0.09″
09/13/2022 09:38 PM 61.2°F 61.2°F / 61.7°F 54.3°F / 75.9°F 29.76 inHg 68% 0.00″
09/13/2022 09:08 PM 61.7°F 61.7°F / 61.7°F 54.3°F / 75.9°F 29.70 inHg 62% 0.00″
09/13/2022 08:38 PM 62.1°F 62.1°F / 63.7°F 54.3°F / 75.9°F 29.68 inHg 60% 0.00″
09/13/2022 08:08 PM 63.1°F 63.1°F / 63.7°F 54.3°F / 75.9°F 29.68 inHg 61% 0.00″
09/13/2022 07:38 PM 65.5°F 65.5°F / 70.3°F 54.3°F / 75.9°F 29.67 inHg 58% 0.00″
09/13/2022 07:07 PM 69.1°F 69.1°F / 70.3°F 54.3°F / 75.9°F 29.66 inHg 54% 0.00″
09/13/2022 06:37 PM 71.1°F 70.9°F / 71.2°F 54.3°F / 75.9°F 29.65 inHg 52% 0.00″
09/13/2022 06:07 PM 70.9°F 70.9°F / 71.2°F 54.3°F / 75.9°F 29.64 inHg 51% 0.00″
09/13/2022 05:37 PM 72.9°F 70.7°F / 72.9°F 54.3°F / 75.9°F 29.64 inHg 49% 0.00″
09/13/2022 05:07 PM 71.1°F 70.7°F / 71.1°F 54.3°F / 75.9°F 29.65 inHg 51% 0.00″
09/13/2022 04:01 PM 75.9°F 75.9°F / 75.9°F 54.3°F / 75.9°F 29.67 inHg 46% 0.00″
09/13/2022 03:31 PM 74.7°F 72.9°F / 74.7°F 54.3°F / 74.7°F 29.67 inHg 48% 0.00″
09/13/2022 03:01 PM 72.9°F 72.9°F / 72.9°F 54.3°F / 73.0°F 29.68 inHg 48% 0.00″
09/13/2022 02:31 PM 72.0°F 71.6°F / 72.1°F 54.3°F / 72.1°F 29.70 inHg 51% 0.00″
09/13/2022 12:55 PM 68.0°F 67.8°F / 68.4°F 54.3°F / 69.4°F 29.75 inHg 59% 0.00″
09/13/2022 12:25 PM 68.0°F 68.0°F / 68.4°F 54.3°F / 69.4°F 29.75 inHg 56% 0.00″
09/13/2022 11:55 AM 67.8°F 67.8°F / 69.3°F 54.3°F / 69.4°F 29.76 inHg 57% 0.00″
09/13/2022 11:25 AM 68.9°F 68.9°F / 69.3°F 54.3°F / 69.4°F 29.76 inHg 54% 0.00″
09/13/2022 10:53 AM 69.3°F 64.8°F / 69.4°F 54.3°F / 69.4°F 29.76 inHg 56% 0.00″
09/13/2022 10:23 AM 67.3°F 64.8°F / 67.3°F 54.3°F / 67.3°F 29.75 inHg 58% 0.00″
09/13/2022 09:53 AM 64.0°F 59.2°F / 64.0°F 54.3°F / 64.0°F 29.75 inHg 63% 0.00″
09/13/2022 09:23 AM 61.3°F 59.2°F / 61.3°F 54.3°F / 61.3°F 29.75 inHg 74% 0.00″
09/13/2022 08:53 AM 59.0°F 56.3°F / 59.0°F 54.3°F / 60.4°F 29.74 inHg 82% 0.00″
09/13/2022 08:23 AM 57.2°F 56.3°F / 57.2°F 54.3°F / 60.4°F 29.75 inHg 80% 0.00″
09/13/2022 07:53 AM 56.1°F 55.6°F / 56.1°F 54.3°F / 60.4°F 29.75 inHg 77% 0.00″
09/13/2022 07:22 AM 55.9°F 55.6°F / 55.9°F 54.3°F / 60.4°F 29.75 inHg 75% 0.00″
09/13/2022 06:52 AM 54.7°F 54.3°F / 55.8°F 54.3°F / 60.4°F 29.75 inHg 76% 0.00″
09/13/2022 06:22 AM 54.5°F 54.5°F / 55.8°F 54.5°F / 60.4°F 29.75 inHg 76% 0.00″
09/13/2022 05:52 AM 56.1°F 56.1°F / 57.6°F 55.9°F / 60.4°F 29.75 inHg 73% 0.00″
09/13/2022 05:21 AM 57.6°F 57.6°F / 57.6°F 55.9°F / 60.4°F 29.74 inHg 71% 0.00″
09/13/2022 04:51 AM 57.4°F 55.9°F / 57.4°F 55.9°F / 60.4°F 29.75 inHg 73% 0.00″
09/13/2022 04:21 AM 56.1°F 55.9°F / 56.1°F 55.9°F / 60.4°F 29.76 inHg 76% 0.00″
09/13/2022 03:51 AM 55.9°F 55.9°F / 56.7°F 55.9°F / 60.4°F 29.76 inHg 78% 0.00″
09/13/2022 03:20 AM 56.5°F 56.5°F / 56.7°F 56.5°F / 60.4°F 29.77 inHg 78% 0.00″
09/13/2022 02:50 AM 56.7°F 56.7°F / 57.7°F 56.7°F / 60.4°F 29.78 inHg 79% 0.00″
09/13/2022 02:20 AM 57.0°F 57.0°F / 57.7°F 57.0°F / 60.4°F 29.78 inHg 77% 0.00″
09/13/2022 01:50 AM 58.3°F 58.3°F / 58.8°F 58.3°F / 60.4°F 29.78 inHg 76% 0.00″
09/13/2022 01:20 AM 58.3°F 58.3°F / 58.8°F 58.3°F / 60.4°F 29.80 inHg 75% 0.00″
09/13/2022 12:50 AM 59.0°F 59.0°F / 60.4°F 59.0°F / 60.4°F 29.78 inHg 72% 0.00″
09/13/2022 12:20 AM 60.3°F 60.3°F / 60.4°F 60.3°F / 60.4°F 29.79 inHg 71% 0.00″
09/12/2022 11:50 PM 60.1°F 59.4°F / 60.4°F 53.1°F / 76.5°F 29.79 inHg 72% 0.00″
09/12/2022 11:19 PM 59.9°F 59.9°F / 60.4°F 53.1°F / 76.5°F 29.79 inHg 72% 0.00″
09/12/2022 10:49 PM 60.4°F 60.3°F / 60.4°F 53.1°F / 76.5°F 29.79 inHg 72% 0.00″
09/12/2022 10:19 PM 60.3°F 60.3°F / 60.4°F 53.1°F / 76.5°F 29.79 inHg 72% 0.00″
09/12/2022 09:49 PM 60.6°F 60.6°F / 62.2°F 53.1°F / 76.5°F 29.79 inHg 70% 0.00″
09/12/2022 09:19 PM 61.3°F 61.3°F / 62.2°F 53.1°F / 76.5°F 29.79 inHg 68% 0.00″
09/12/2022 08:49 PM 63.0°F 63.0°F / 65.7°F 53.1°F / 76.5°F 29.78 inHg 65% 0.00″
09/12/2022 08:18 PM 64.8°F 64.8°F / 65.7°F 53.1°F / 76.5°F 29.76 inHg 61% 0.00″
09/12/2022 07:48 PM 66.0°F 66.0°F / 69.3°F 53.1°F / 76.5°F 29.75 inHg 57% 0.00″
09/12/2022 07:18 PM 67.6°F 67.6°F / 69.3°F 53.1°F / 76.5°F 29.76 inHg 55% 0.00″
09/12/2022 06:48 PM 71.2°F 71.2°F / 75.7°F 53.1°F / 76.5°F 29.76 inHg 49% 0.00″
09/12/2022 06:18 PM 75.4°F 75.4°F / 75.7°F 53.1°F / 76.5°F 29.76 inHg 42% 0.00″
09/12/2022 05:48 PM 75.7°F 75.6°F / 76.5°F 53.1°F / 76.5°F 29.76 inHg 45% 0.00″
09/12/2022 05:18 PM 75.7°F 75.7°F / 76.5°F 53.1°F / 76.5°F 29.76 inHg 46% 0.00″
09/12/2022 04:48 PM 75.6°F 74.5°F / 75.6°F 53.1°F / 75.6°F 29.76 inHg 44% 0.00″
09/12/2022 04:18 PM 74.5°F 74.5°F / 75.0°F 53.1°F / 75.6°F 29.77 inHg 46% 0.00″
09/12/2022 03:48 PM 75.0°F 72.9°F / 75.0°F 53.1°F / 75.0°F 29.78 inHg 46% 0.00″
09/12/2022 03:18 PM 73.4°F 72.9°F / 73.6°F 53.1°F / 73.6°F 29.79 inHg 48% 0.00″
09/12/2022 02:48 PM 73.0°F 70.5°F / 73.2°F 53.1°F / 73.2°F 29.81 inHg 52% 0.00″
09/12/2022 01:45 PM 70.2°F 69.4°F / 70.9°F 53.1°F / 72.3°F 29.85 inHg 60% 0.00″
09/12/2022 01:15 PM 70.0°F 70.0°F / 70.9°F 53.1°F / 72.3°F 29.86 inHg 57% 0.00″
09/12/2022 12:45 PM 72.1°F 70.3°F / 72.3°F 53.1°F / 72.3°F 29.87 inHg 55% 0.00″
09/12/2022 12:15 PM 71.6°F 70.3°F / 71.6°F 53.1°F / 71.6°F 29.88 inHg 58% 0.00″
09/12/2022 11:45 AM 70.0°F 69.1°F / 70.0°F 53.1°F / 70.0°F 29.90 inHg 62% 0.00″
09/12/2022 11:14 AM 69.4°F 69.1°F / 69.4°F 53.1°F / 69.4°F 29.91 inHg 62% 0.00″
09/12/2022 10:44 AM 68.2°F 64.6°F / 68.2°F 53.1°F / 68.2°F 29.91 inHg 66% 0.00″
09/12/2022 10:14 AM 66.0°F 64.6°F / 66.0°F 53.1°F / 66.0°F 29.92 inHg 68% 0.00″
09/12/2022 09:44 AM 62.8°F 57.9°F / 62.8°F 53.1°F / 62.8°F 29.91 inHg 77% 0.00″
09/12/2022 09:14 AM 59.4°F 57.9°F / 59.4°F 53.1°F / 59.4°F 29.91 inHg 82% 0.00″
09/12/2022 08:44 AM 56.8°F 53.8°F / 56.8°F 53.1°F / 58.3°F 29.91 inHg 84% 0.00″
09/12/2022 08:14 AM 54.3°F 53.8°F / 54.3°F 53.1°F / 58.3°F 29.91 inHg 84% 0.00″
09/12/2022 07:43 AM 53.2°F 53.1°F / 53.2°F 53.1°F / 58.3°F 29.91 inHg 83% 0.00″
09/12/2022 07:13 AM 53.1°F 53.1°F / 53.2°F 53.1°F / 58.3°F 29.90 inHg 83% 0.00″
09/12/2022 06:41 AM 53.8°F 53.2°F / 54.0°F 53.2°F / 58.3°F 29.89 inHg 83% 0.00″
09/12/2022 06:11 AM 53.6°F 53.6°F / 54.0°F 53.4°F / 58.3°F 29.90 inHg 85% 0.00″
09/12/2022 05:41 AM 54.0°F 53.4°F / 54.0°F 53.4°F / 58.3°F 29.89 inHg 85% 0.00″
09/12/2022 05:11 AM 53.6°F 53.6°F / 53.8°F 53.6°F / 58.3°F 29.89 inHg 84% 0.00″
09/12/2022 04:40 AM 54.0°F 53.8°F / 54.0°F 53.8°F / 58.3°F 29.89 inHg 83% 0.00″
09/12/2022 04:10 AM 54.0°F 53.8°F / 54.0°F 53.8°F / 58.3°F 29.89 inHg 84% 0.00″
09/12/2022 03:40 AM 53.8°F 53.8°F / 55.0°F 53.8°F / 58.3°F 29.89 inHg 82% 0.00″
09/12/2022 03:10 AM 54.9°F 54.9°F / 55.0°F 54.9°F / 58.3°F 29.89 inHg 80% 0.00″
09/12/2022 02:40 AM 55.2°F 55.2°F / 56.5°F 55.2°F / 58.3°F 29.90 inHg 80% 0.00″
09/12/2022 02:10 AM 56.1°F 56.1°F / 56.5°F 56.1°F / 58.3°F 29.91 inHg 79% 0.00″
09/12/2022 01:40 AM 57.9°F 57.7°F / 58.3°F 56.7°F / 58.3°F 29.91 inHg 77% 0.00″
09/12/2022 01:10 AM 57.9°F 57.7°F / 57.9°F 56.7°F / 57.9°F 29.91 inHg 79% 0.00″
09/12/2022 12:40 AM 56.7°F 56.7°F / 57.0°F 56.7°F / 57.0°F 29.92 inHg 80% 0.00″
09/12/2022 12:10 AM 56.7°F 56.7°F / 56.8°F 56.7°F / 56.8°F 29.93 inHg 80% 0.00″
09/11/2022 11:39 PM 57.4°F 57.4°F / 58.6°F 57.4°F / 72.3°F 29.93 inHg 77% 0.00″
09/11/2022 11:07 PM 58.5°F 58.5°F / 58.6°F 57.9°F / 72.3°F 29.93 inHg 75% 0.00″
09/11/2022 10:37 PM 58.6°F 58.6°F / 59.2°F 57.9°F / 72.3°F 29.93 inHg 75% 0.00″
09/11/2022 10:07 PM 59.2°F 59.2°F / 59.2°F 57.9°F / 72.3°F 29.94 inHg 74% 0.00″
09/11/2022 09:36 PM 58.8°F 58.6°F / 59.7°F 57.9°F / 72.3°F 29.95 inHg 76% 0.00″
09/11/2022 09:06 PM 59.5°F 59.5°F / 59.7°F 57.9°F / 72.3°F 29.94 inHg 74% 0.00″
09/11/2022 08:36 PM 60.6°F 60.6°F / 62.1°F 57.9°F / 72.3°F 29.93 inHg 72% 0.00″
09/11/2022 08:06 PM 61.7°F 61.7°F / 62.1°F 57.9°F / 72.3°F 29.91 inHg 71% 0.00″
09/11/2022 07:36 PM 63.3°F 63.3°F / 66.6°F 57.9°F / 72.3°F 29.90 inHg 69% 0.00″
09/11/2022 07:05 PM 65.8°F 65.8°F / 66.6°F 57.9°F / 72.3°F 29.89 inHg 64% 0.00″
09/11/2022 06:35 PM 68.5°F 68.5°F / 71.1°F 57.9°F / 72.3°F 29.89 inHg 59% 0.00″
09/11/2022 06:05 PM 70.9°F 70.9°F / 71.1°F 57.9°F / 72.3°F 29.89 inHg 55% 0.00″
09/11/2022 05:35 PM 72.3°F 72.0°F / 72.3°F 57.9°F / 72.3°F 29.88 inHg 53% 0.00″
09/11/2022 02:42 PM 69.8°F 66.0°F / 69.8°F 57.9°F / 69.8°F 29.90 inHg 64% 0.00″
09/11/2022 02:12 PM 67.3°F 66.0°F / 67.5°F 57.9°F / 67.8°F 29.91 inHg 70% 0.00″
09/11/2022 01:42 PM 65.5°F 65.5°F / 66.2°F 57.9°F / 67.8°F 29.93 inHg 72% 0.00″
09/11/2022 01:12 PM 66.0°F 66.0°F / 66.2°F 57.9°F / 67.8°F 29.93 inHg 70% 0.00″
09/11/2022 12:42 PM 65.8°F 65.7°F / 66.6°F 57.9°F / 67.8°F 29.94 inHg 72% 0.00″
09/11/2022 12:12 PM 65.8°F 65.7°F / 66.6°F 57.9°F / 67.8°F 29.94 inHg 71% 0.00″
09/11/2022 11:42 AM 66.9°F 66.9°F / 67.8°F 57.9°F / 67.8°F 29.94 inHg 67% 0.00″
09/11/2022 11:12 AM 67.5°F 67.5°F / 67.8°F 57.9°F / 67.8°F 29.94 inHg 64% 0.00″
09/11/2022 10:42 AM 67.5°F 64.9°F / 67.5°F 57.9°F / 67.5°F 29.93 inHg 66% 0.00″
09/11/2022 10:12 AM 65.7°F 64.9°F / 65.7°F 57.9°F / 65.7°F 29.93 inHg 64% 0.00″
09/11/2022 09:42 AM 63.0°F 58.6°F / 63.0°F 57.9°F / 63.1°F 29.93 inHg 71% 0.00″
09/11/2022 09:09 AM 59.4°F 58.6°F / 59.4°F 57.9°F / 63.1°F 29.92 inHg 80% 0.00″
09/11/2022 08:39 AM 58.1°F 57.9°F / 58.5°F 57.9°F / 63.1°F 29.93 inHg 82% 0.00″
09/11/2022 08:09 AM 58.5°F 58.5°F / 58.5°F 58.5°F / 63.1°F 29.93 inHg 80% 0.00″
09/11/2022 07:38 AM 59.2°F 58.8°F / 59.4°F 58.6°F / 63.1°F 29.92 inHg 75% 0.00″
09/11/2022 07:08 AM 59.0°F 58.8°F / 59.2°F 58.6°F / 63.1°F 29.91 inHg 73% 0.00″
09/11/2022 06:38 AM 58.8°F 58.6°F / 58.8°F 58.6°F / 63.1°F 29.90 inHg 74% 0.00″
09/11/2022 06:08 AM 58.8°F 58.6°F / 58.8°F 58.6°F / 63.1°F 29.89 inHg 74% 0.00″
09/11/2022 05:38 AM 59.4°F 59.4°F / 59.5°F 59.4°F / 63.1°F 29.88 inHg 73% 0.00″
09/11/2022 05:08 AM 59.5°F 59.5°F / 59.5°F 59.4°F / 63.1°F 29.88 inHg 73% 0.00″
09/11/2022 04:38 AM 59.5°F 59.4°F / 59.5°F 59.4°F / 63.1°F 29.88 inHg 73% 0.00″
09/11/2022 04:08 AM 59.5°F 59.5°F / 59.5°F 59.5°F / 63.1°F 29.87 inHg 73% 0.00″
09/11/2022 03:38 AM 59.7°F 59.7°F / 60.3°F 59.7°F / 63.1°F 29.86 inHg 73% 0.00″
09/11/2022 03:08 AM 60.1°F 60.1°F / 60.3°F 60.1°F / 63.1°F 29.84 inHg 72% 0.00″
09/11/2022 02:37 AM 60.4°F 60.4°F / 60.8°F 60.4°F / 63.1°F 29.84 inHg 72% 0.00″
09/11/2022 02:07 AM 60.6°F 60.6°F / 60.8°F 60.6°F / 63.1°F 29.83 inHg 71% 0.00″
09/11/2022 01:37 AM 61.0°F 61.0°F / 61.3°F 61.0°F / 63.1°F 29.83 inHg 70% 0.00″
09/11/2022 01:07 AM 61.2°F 61.2°F / 61.3°F 61.2°F / 63.1°F 29.83 inHg 69% 0.00″
09/11/2022 12:37 AM 61.5°F 61.5°F / 63.1°F 61.5°F / 63.1°F 29.82 inHg 68% 0.00″
09/11/2022 12:07 AM 62.8°F 62.8°F / 63.1°F 62.8°F / 63.1°F 29.83 inHg 64% 0.00″
09/10/2022 11:37 PM 64.0°F 64.0°F / 64.6°F 59.4°F / 77.7°F 29.82 inHg 57% 0.00″
09/10/2022 11:07 PM 64.2°F 64.2°F / 64.6°F 59.4°F / 77.7°F 29.81 inHg 55% 0.00″
09/10/2022 10:37 PM 64.9°F 64.9°F / 65.5°F 59.4°F / 77.7°F 29.81 inHg 55% 0.00″
09/10/2022 10:07 PM 65.1°F 65.1°F / 65.5°F 59.4°F / 77.7°F 29.80 inHg 56% 0.00″
09/10/2022 09:37 PM 65.7°F 65.7°F / 66.6°F 59.4°F / 77.7°F 29.79 inHg 56% 0.00″
09/10/2022 09:07 PM 66.4°F 66.4°F / 66.6°F 59.4°F / 77.7°F 29.78 inHg 55% 0.00″
09/10/2022 08:37 PM 67.3°F 67.3°F / 68.5°F 59.4°F / 77.7°F 29.76 inHg 55% 0.00″
09/10/2022 08:07 PM 68.4°F 68.4°F / 68.5°F 59.4°F / 77.7°F 29.74 inHg 53% 0.00″
09/10/2022 07:37 PM 69.6°F 69.6°F / 72.3°F 59.4°F / 77.7°F 29.72 inHg 52% 0.00″
09/10/2022 04:29 PM 77.4°F 76.5°F / 77.5°F 59.4°F / 77.5°F 29.70 inHg 41% 0.00″
09/10/2022 03:59 PM 76.5°F 75.6°F / 76.5°F 59.4°F / 77.4°F 29.69 inHg 42% 0.00″
09/10/2022 03:29 PM 75.9°F 75.6°F / 76.3°F 59.4°F / 77.4°F 29.70 inHg 38% 0.00″
09/10/2022 02:59 PM 75.6°F 69.4°F / 75.6°F 59.4°F / 77.4°F 29.70 inHg 40% 0.00″
09/10/2022 02:29 PM 70.0°F 69.4°F / 70.5°F 59.4°F / 77.4°F 29.70 inHg 48% 0.00″
09/10/2022 01:59 PM 70.7°F 70.7°F / 77.4°F 59.4°F / 77.4°F 29.71 inHg 46% 0.00″
09/10/2022 01:28 PM 75.4°F 75.4°F / 77.4°F 59.4°F / 77.4°F 29.71 inHg 41% 0.00″
09/10/2022 10:56 AM 73.8°F 72.1°F / 73.9°F 59.4°F / 73.9°F 29.72 inHg 42% 0.00″
09/10/2022 10:26 AM 73.9°F 72.1°F / 73.9°F 59.4°F / 73.9°F 29.71 inHg 43% 0.00″
09/10/2022 09:26 AM 69.8°F 68.4°F / 69.8°F 59.4°F / 69.8°F 29.70 inHg 49% 0.00″
09/10/2022 08:56 AM 68.4°F 64.8°F / 68.4°F 59.4°F / 68.4°F 29.70 inHg 45% 0.00″
09/10/2022 08:26 AM 66.7°F 64.8°F / 66.7°F 59.4°F / 66.7°F 29.70 inHg 44% 0.00″
09/10/2022 07:56 AM 64.4°F 59.4°F / 64.4°F 59.4°F / 64.4°F 29.70 inHg 43% 0.00″
09/10/2022 07:26 AM 61.0°F 59.4°F / 61.0°F 59.4°F / 64.4°F 29.68 inHg 47% 0.00″
09/10/2022 06:56 AM 59.7°F 59.7°F / 62.2°F 59.7°F / 64.4°F 29.67 inHg 52% 0.00″
09/10/2022 06:26 AM 61.2°F 61.2°F / 62.2°F 61.0°F / 64.4°F 29.66 inHg 49% 0.00″
09/10/2022 05:56 AM 62.4°F 61.3°F / 62.4°F 61.0°F / 64.4°F 29.65 inHg 46% 0.00″
09/10/2022 05:24 AM 62.1°F 61.3°F / 62.1°F 61.0°F / 64.4°F 29.65 inHg 45% 0.00″
09/10/2022 04:54 AM 61.0°F 61.0°F / 61.5°F 61.0°F / 64.4°F 29.64 inHg 46% 0.00″
09/10/2022 04:24 AM 61.2°F 61.2°F / 61.5°F 61.2°F / 64.4°F 29.64 inHg 49% 0.00″
09/10/2022 03:54 AM 61.7°F 61.7°F / 62.8°F 61.5°F / 64.4°F 29.64 inHg 46% 0.00″
09/10/2022 03:23 AM 62.1°F 62.1°F / 62.8°F 61.5°F / 64.4°F 29.63 inHg 44% 0.00″
09/10/2022 02:52 AM 63.1°F 63.1°F / 64.0°F 61.5°F / 64.4°F 29.63 inHg 44% 0.00″
09/10/2022 02:22 AM 64.0°F 63.1°F / 64.0°F 61.5°F / 64.4°F 29.63 inHg 44% 0.00″
09/10/2022 01:52 AM 63.1°F 61.5°F / 63.5°F 61.5°F / 64.4°F 29.64 inHg 46% 0.00″
09/10/2022 01:22 AM 62.4°F 61.5°F / 62.4°F 61.5°F / 64.4°F 29.64 inHg 46% 0.00″
09/10/2022 12:52 AM 61.7°F 61.7°F / 64.4°F 61.7°F / 64.4°F 29.65 inHg 50% 0.00″
09/10/2022 12:22 AM 63.7°F 63.7°F / 64.4°F 63.7°F / 64.4°F 29.65 inHg 47% 0.00″
09/09/2022 11:52 PM 64.8°F 64.4°F / 64.9°F 54.0°F / 78.8°F 29.64 inHg 46% 0.00″
09/09/2022 11:22 PM 64.8°F 64.4°F / 64.8°F 54.0°F / 78.8°F 29.64 inHg 44% 0.00″
09/09/2022 10:52 PM 64.6°F 64.0°F / 64.6°F 54.0°F / 78.8°F 29.63 inHg 45% 0.00″
09/09/2022 10:22 PM 64.2°F 64.2°F / 64.4°F 54.0°F / 78.8°F 29.63 inHg 47% 0.00″
09/09/2022 09:51 PM 64.6°F 64.6°F / 65.1°F 54.0°F / 78.8°F 29.62 inHg 47% 0.00″
09/09/2022 09:21 PM 64.8°F 64.8°F / 65.1°F 54.0°F / 78.8°F 29.61 inHg 46% 0.00″
09/09/2022 08:51 PM 65.3°F 65.3°F / 66.0°F 54.0°F / 78.8°F 29.60 inHg 45% 0.00″
09/09/2022 08:21 PM 65.7°F 65.7°F / 66.0°F 54.0°F / 78.8°F 29.58 inHg 44% 0.00″
09/09/2022 07:51 PM 66.6°F 66.6°F / 70.0°F 54.0°F / 78.8°F 29.57 inHg 45% 0.00″
09/09/2022 07:21 PM 68.2°F 68.2°F / 70.0°F 54.0°F / 78.8°F 29.57 inHg 49% 0.00″
09/09/2022 06:51 PM 70.9°F 70.9°F / 74.7°F 54.0°F / 78.8°F 29.56 inHg 47% 0.00″
09/09/2022 06:20 PM 73.6°F 73.6°F / 74.7°F 54.0°F / 78.8°F 29.56 inHg 41% 0.00″
09/09/2022 05:50 PM 75.0°F 75.0°F / 77.2°F 54.0°F / 78.8°F 29.56 inHg 38% 0.00″
09/09/2022 05:20 PM 76.3°F 76.3°F / 77.2°F 54.0°F / 78.8°F 29.55 inHg 37% 0.00″
09/09/2022 04:49 PM 77.4°F 77.4°F / 78.3°F 54.0°F / 78.8°F 29.55 inHg 34% 0.00″
09/09/2022 04:19 PM 77.7°F 77.7°F / 78.3°F 54.0°F / 78.8°F 29.55 inHg 33% 0.00″
09/09/2022 03:49 PM 78.6°F 77.7°F / 78.8°F 54.0°F / 78.8°F 29.55 inHg 33% 0.00″
09/09/2022 03:19 PM 77.9°F 77.7°F / 78.1°F 54.0°F / 78.1°F 29.55 inHg 36% 0.00″
09/09/2022 02:49 PM 76.8°F 75.2°F / 77.0°F 54.0°F / 77.0°F 29.56 inHg 36% 0.00″
09/09/2022 02:19 PM 75.7°F 75.2°F / 75.9°F 54.0°F / 75.9°F 29.57 inHg 38% 0.00″
09/09/2022 01:49 PM 74.8°F 73.8°F / 74.8°F 54.0°F / 74.8°F 29.58 inHg 42% 0.00″
09/09/2022 01:19 PM 73.8°F 73.8°F / 73.9°F 54.0°F / 74.1°F 29.58 inHg 41% 0.00″
09/09/2022 12:49 PM 73.9°F 73.0°F / 73.9°F 54.0°F / 74.1°F 29.59 inHg 44% 0.00″
09/09/2022 12:19 PM 73.8°F 73.0°F / 73.8°F 54.0°F / 74.1°F 29.60 inHg 43% 0.00″
09/09/2022 11:16 AM 73.6°F 72.3°F / 73.6°F 54.0°F / 73.6°F 29.61 inHg 44% 0.00″
09/09/2022 08:46 AM 58.8°F 54.9°F / 58.8°F 54.0°F / 58.8°F 29.62 inHg 69% 0.00″
09/09/2022 08:16 AM 55.8°F 54.9°F / 55.8°F 54.0°F / 58.8°F 29.62 inHg 71% 0.00″
09/09/2022 07:46 AM 54.5°F 54.0°F / 54.5°F 54.0°F / 58.8°F 29.62 inHg 71% 0.00″
09/09/2022 07:15 AM 54.0°F 54.0°F / 54.0°F 54.0°F / 58.8°F 29.61 inHg 71% 0.00″
09/09/2022 06:45 AM 54.1°F 54.1°F / 54.5°F 54.1°F / 58.8°F 29.61 inHg 70% 0.00″
09/09/2022 06:15 AM 54.1°F 54.1°F / 54.5°F 54.1°F / 58.8°F 29.60 inHg 69% 0.00″
09/09/2022 05:45 AM 54.9°F 54.9°F / 55.9°F 54.9°F / 58.8°F 29.60 inHg 67% 0.00″
09/09/2022 05:14 AM 55.8°F 55.8°F / 55.9°F 55.6°F / 58.8°F 29.60 inHg 65% 0.00″
09/09/2022 04:44 AM 55.8°F 55.6°F / 56.3°F 55.6°F / 58.8°F 29.60 inHg 65% 0.00″
09/09/2022 04:14 AM 55.8°F 55.8°F / 56.3°F 55.8°F / 58.8°F 29.61 inHg 65% 0.00″
09/09/2022 03:44 AM 56.7°F 56.7°F / 58.5°F 56.1°F / 58.8°F 29.62 inHg 62% 0.00″
09/09/2022 03:14 AM 57.4°F 57.4°F / 58.5°F 56.1°F / 58.8°F 29.62 inHg 60% 0.00″
09/09/2022 02:44 AM 58.5°F 56.7°F / 58.8°F 56.1°F / 58.8°F 29.62 inHg 58% 0.00″
09/09/2022 02:13 AM 58.3°F 56.7°F / 58.3°F 56.1°F / 58.6°F 29.63 inHg 59% 0.00″
09/09/2022 01:43 AM 56.1°F 56.1°F / 57.9°F 56.1°F / 58.6°F 29.63 inHg 64% 0.00″
09/09/2022 01:13 AM 57.6°F 57.6°F / 57.9°F 57.6°F / 58.6°F 29.64 inHg 61% 0.00″
09/09/2022 12:43 AM 58.3°F 57.7°F / 58.6°F 57.7°F / 58.6°F 29.64 inHg 60% 0.00″
09/09/2022 12:12 AM 58.3°F 58.3°F / 58.6°F 58.3°F / 58.6°F 29.65 inHg 60% 0.00″
09/08/2022 11:41 PM 58.8°F 58.8°F / 60.3°F 52.9°F / 77.7°F 29.65 inHg 60% 0.00″
09/08/2022 11:11 PM 60.1°F 60.1°F / 60.3°F 52.9°F / 77.7°F 29.66 inHg 59% 0.00″
09/08/2022 10:41 PM 60.4°F 60.4°F / 61.0°F 52.9°F / 77.7°F 29.66 inHg 58% 0.00″
09/08/2022 10:11 PM 60.4°F 60.4°F / 60.6°F 52.9°F / 77.7°F 29.66 inHg 57% 0.00″
09/08/2022 09:41 PM 61.3°F 61.3°F / 63.1°F 52.9°F / 77.7°F 29.65 inHg 56% 0.00″
09/08/2022 09:10 PM 62.8°F 62.8°F / 63.1°F 52.9°F / 77.7°F 29.65 inHg 56% 0.00″
09/08/2022 08:40 PM 63.9°F 63.9°F / 65.5°F 52.9°F / 77.7°F 29.65 inHg 55% 0.00″
09/08/2022 08:10 PM 64.8°F 64.8°F / 65.5°F 52.9°F / 77.7°F 29.63 inHg 53% 0.00″
09/08/2022 07:40 PM 66.7°F 66.7°F / 71.2°F 52.9°F / 77.7°F 29.62 inHg 51% 0.00″
09/08/2022 07:09 PM 69.6°F 69.6°F / 71.2°F 52.9°F / 77.7°F 29.62 inHg 47% 0.00″
09/08/2022 06:39 PM 73.2°F 73.2°F / 75.0°F 52.9°F / 77.7°F 29.62 inHg 45% 0.00″
09/08/2022 06:09 PM 74.7°F 74.7°F / 75.0°F 52.9°F / 77.7°F 29.63 inHg 42% 0.00″
09/08/2022 05:39 PM 75.0°F 75.0°F / 76.1°F 52.9°F / 77.7°F 29.63 inHg 43% 0.00″
09/08/2022 05:09 PM 75.9°F 75.7°F / 76.1°F 52.9°F / 77.7°F 29.64 inHg 46% 0.00″
09/08/2022 04:39 PM 76.6°F 76.6°F / 77.5°F 52.9°F / 77.7°F 29.65 inHg 42% 0.00″
09/08/2022 04:09 PM 77.2°F 77.2°F / 77.5°F 52.9°F / 77.7°F 29.65 inHg 41% 0.00″
09/08/2022 03:09 PM 76.6°F 76.5°F / 76.6°F 52.9°F / 77.0°F 29.68 inHg 45% 0.00″
09/08/2022 02:39 PM 77.0°F 76.3°F / 77.0°F 52.9°F / 77.0°F 29.69 inHg 41% 0.00″
09/08/2022 01:08 PM 75.4°F 75.0°F / 75.4°F 52.9°F / 75.4°F 29.73 inHg 46% 0.00″
09/08/2022 12:38 PM 74.5°F 73.2°F / 74.5°F 52.9°F / 74.5°F 29.76 inHg 47% 0.00″
09/08/2022 12:08 PM 73.2°F 73.2°F / 73.2°F 52.9°F / 73.2°F 29.76 inHg 46% 0.00″
09/08/2022 11:38 AM 72.5°F 72.0°F / 72.5°F 52.9°F / 72.5°F 29.78 inHg 48% 0.00″
09/08/2022 11:08 AM 72.3°F 72.0°F / 72.3°F 52.9°F / 72.3°F 29.79 inHg 47% 0.00″
09/08/2022 10:38 AM 70.2°F 66.4°F / 70.2°F 52.9°F / 70.2°F 29.80 inHg 50% 0.00″
09/08/2022 10:08 AM 67.5°F 66.4°F / 67.5°F 52.9°F / 67.5°F 29.81 inHg 52% 0.00″
09/08/2022 09:38 AM 62.2°F 57.9°F / 62.2°F 52.9°F / 62.2°F 29.81 inHg 61% 0.00″
09/08/2022 09:08 AM 58.6°F 57.9°F / 58.6°F 52.9°F / 61.9°F 29.82 inHg 73% 0.00″
09/08/2022 08:36 AM 56.1°F 54.7°F / 56.1°F 52.9°F / 61.9°F 29.82 inHg 72% 0.00″
09/08/2022 08:06 AM 54.7°F 54.7°F / 54.7°F 52.9°F / 61.9°F 29.83 inHg 71% 0.00″
09/08/2022 07:36 AM 53.6°F 53.4°F / 53.8°F 52.9°F / 61.9°F 29.83 inHg 70% 0.00″
09/08/2022 07:05 AM 53.6°F 53.4°F / 53.6°F 52.9°F / 61.9°F 29.82 inHg 67% 0.00″
09/08/2022 06:35 AM 52.9°F 52.9°F / 53.8°F 52.9°F / 61.9°F 29.83 inHg 69% 0.00″
09/08/2022 06:05 AM 53.8°F 53.8°F / 53.8°F 53.8°F / 61.9°F 29.83 inHg 69% 0.00″
09/08/2022 05:35 AM 54.0°F 53.8°F / 54.1°F 53.8°F / 61.9°F 29.83 inHg 70% 0.00″
09/08/2022 05:05 AM 54.0°F 54.0°F / 54.1°F 54.0°F / 61.9°F 29.84 inHg 70% 0.00″
09/08/2022 04:35 AM 54.7°F 54.7°F / 55.6°F 54.7°F / 61.9°F 29.84 inHg 69% 0.00″
09/08/2022 04:04 AM 55.6°F 55.4°F / 55.6°F 55.2°F / 61.9°F 29.86 inHg 67% 0.00″
09/08/2022 03:34 AM 55.8°F 55.8°F / 58.8°F 55.8°F / 61.9°F 29.86 inHg 65% 0.00″
09/08/2022 03:04 AM 58.5°F 58.5°F / 58.8°F 58.5°F / 61.9°F 29.87 inHg 59% 0.00″
09/08/2022 02:33 AM 60.1°F 60.1°F / 61.2°F 60.1°F / 61.9°F 29.88 inHg 57% 0.00″
09/08/2022 02:03 AM 61.0°F 61.0°F / 61.2°F 60.6°F / 61.9°F 29.88 inHg 55% 0.00″
09/08/2022 01:33 AM 61.3°F 61.0°F / 61.3°F 60.6°F / 61.9°F 29.89 inHg 54% 0.00″